Observation data for Mertzon on 05/27/2019      Previous  Date  Next       Current Mesonet Observations  Soil Data  Daily Summary Page  Observations in Plain Language
KME1 270500Z 18011KT 24/19 A299 RMK A01 T02380192  RH  076%=      5-min Rain = 0
KME1 270501Z 17010KT 24/19 A299 RMK A01 T02380192  RH  075%=      5-min Rain = 0
KME1 270502Z 17008KT 24/19 A299 RMK A01 T02380192  RH  075%=      5-min Rain = 0
KME1 270503Z 17010KT 24/19 A299 RMK A01 T02380193  RH  076%=      5-min Rain = 0
KME1 270504Z 18010KT 24/19 A299 RMK A01 T02370192  RH  076%=      5-min Rain = 0
KME1 270505Z 17009KT 24/19 A299 RMK A01 T02370192  RH  076%=      5-min Rain = 0
KME1 270506Z 17011KT 24/19 A299 RMK A01 T02370192  RH  076%=      5-min Rain = 0
KME1 270507Z 17008KT 24/19 A299 RMK A01 T02370192  RH  076%=      5-min Rain = 0
KME1 270508Z 17009G14KT 24/19 A299 RMK A01 T02370193  RH  076%=      5-min Rain = 0
KME1 270509Z 18012KT 24/19 A299 RMK A01 T02370193  RH  076%=      5-min Rain = 0
KME1 270510Z 17013KT 24/19 A299 RMK A01 T02380192  RH  076%=      5-min Rain = 0
KME1 270511Z 18011KT 24/19 A299 RMK A01 T02380192  RH  075%=      5-min Rain = 0
KME1 270512Z 17010KT 24/19 A299 RMK A01 T02380192  RH  075%=      5-min Rain = 0
KME1 270513Z 18012KT 24/19 A299 RMK A01 T02390192  RH  075%=      5-min Rain = 0
KME1 270514Z 17011KT 24/19 A299 RMK A01 T02380192  RH  075%=      5-min Rain = 0
KME1 270515Z 17012KT 24/19 A299 RMK A01 T02380193  RH  076%=      5-min Rain = 0
KME1 270516Z 18011KT 24/19 A299 RMK A01 T02380193  RH  076%=      5-min Rain = 0
KME1 270517Z 18011KT 24/19 A299 RMK A01 T02380193  RH  076%=      5-min Rain = 0
KME1 270518Z 18010KT 24/19 A299 RMK A01 T02380193  RH  076%=      5-min Rain = 0
KME1 270519Z 18009KT 24/19 A299 RMK A01 T02370193  RH  076%=      5-min Rain = 0
KME1 270520Z 18012KT 24/19 A299 RMK A01 T02370193  RH  077%=      5-min Rain = 0
KME1 270521Z 18012G17KT 24/19 A299 RMK A01 T02370193  RH  076%=      5-min Rain = 0
KME1 270522Z 18011KT 24/19 A299 RMK A01 T02370193  RH  076%=      5-min Rain = 0
KME1 270523Z 18011KT 24/19 A299 RMK A01 T02370193  RH  076%=      5-min Rain = 0
KME1 270524Z 18008KT 24/19 A299 RMK A01 T02370194  RH  077%=      5-min Rain = 0
KME1 270525Z 18010KT 24/19 A299 RMK A01 T02370194  RH  077%=      5-min Rain = 0
KME1 270526Z 18012G17KT 24/19 A299 RMK A01 T02360194  RH  077%=      5-min Rain = 0
KME1 270527Z 18010KT 24/19 A299 RMK A01 T02370194  RH  077%=      5-min Rain = 0
KME1 270528Z 18011KT 24/19 A299 RMK A01 T02370194  RH  077%=      5-min Rain = 0
KME1 270529Z 18011KT 24/19 A299 RMK A01 T02380194  RH  077%=      5-min Rain = 0
KME1 270530Z 18012KT 24/19 A299 RMK A01 T02370194  RH  077%=      5-min Rain = 0
KME1 270531Z 17009KT 24/19 A299 RMK A01 T02370194  RH  077%=      5-min Rain = 0
KME1 270532Z 18010KT 24/20 A299 RMK A01 T02380195  RH  077%=      5-min Rain = 0
KME1 270533Z 17013KT 24/20 A299 RMK A01 T02370195  RH  077%=      5-min Rain = 0
KME1 270534Z 17014KT 24/20 A299 RMK A01 T02370195  RH  077%=      5-min Rain = 0
KME1 270535Z 17013KT 24/19 A299 RMK A01 T02370194  RH  077%=      5-min Rain = 0
KME1 270536Z 18012G17KT 24/20 A299 RMK A01 T02380195  RH  077%=      5-min Rain = 0
KME1 270537Z 18010KT 24/20 A299 RMK A01 T02390195  RH  077%=      5-min Rain = 0
KME1 270538Z 18010KT 24/20 A299 RMK A01 T02380195  RH  077%=      5-min Rain = 0
KME1 270539Z 18009KT 24/20 A299 RMK A01 T02380195  RH  077%=      5-min Rain = 0
KME1 270540Z 17012G18KT 24/20 A299 RMK A01 T02370195  RH  077%=      5-min Rain = 0
KME1 270541Z 17014KT 24/20 A299 RMK A01 T02370195  RH  077%=      5-min Rain = 0
KME1 270542Z 17012G17KT 24/20 A299 RMK A01 T02380195  RH  077%=      5-min Rain = 0
KME1 270543Z 18013KT 24/20 A299 RMK A01 T02380195  RH  077%=      5-min Rain = 0
KME1 270544Z 17010KT 24/20 A299 RMK A01 T02380195  RH  077%=      5-min Rain = 0
KME1 270545Z 17012KT 24/20 A299 RMK A01 T02380196  RH  077%=      5-min Rain = 0
KME1 270546Z 17011KT 24/20 A299 RMK A01 T02390196  RH  077%=      5-min Rain = 0
KME1 270547Z 17012KT 24/20 A299 RMK A01 T02380196  RH  077%=      5-min Rain = 0
KME1 270548Z 17010KT 24/20 A299 RMK A01 T02390196  RH  077%=      5-min Rain = 0
KME1 270549Z 18013KT 24/20 A299 RMK A01 T02380196  RH  077%=      5-min Rain = 0
KME1 270550Z 17014KT 24/20 A299 RMK A01 T02380196  RH  077%=      5-min Rain = 0
KME1 270551Z 18015G20KT 24/20 A2989 RMK A01 T02380196  RH  077%=      5-min Rain = 0
KME1 270552Z 17012G17KT 24/20 A2989 RMK A01 T02380196  RH  077%=      5-min Rain = 0
KME1 270553Z 18014KT 24/20 A2989 RMK A01 T02390196  RH  077%=      5-min Rain = 0
KME1 270554Z 17014G19KT 24/20 A2989 RMK A01 T02390196  RH  077%=      5-min Rain = 0
KME1 270555Z 17015KT 24/20 A299 RMK A01 T02390196  RH  077%=      5-min Rain = 0
KME1 270556Z 18016KT 24/20 A2989 RMK A01 T02390196  RH  077%=      5-min Rain = 0
KME1 270557Z 17013KT 24/20 A299 RMK A01 T02390196  RH  077%=      5-min Rain = 0
KME1 270558Z 17013G18KT 24/20 A2989 RMK A01 T02390196  RH  077%=      5-min Rain = 0
KME1 270559Z 18017G24KT 24/20 A2989 RMK A01 T02390196  RH  077%=      5-min Rain = 0
KME1 270600Z 17015KT 24/20 A2989 RMK A01 T02390196  RH  077%=      5-min Rain = 0
KME1 270601Z 17014G19KT 24/20 A2989 RMK A01 T02390197  RH  077%=      5-min Rain = 0
KME1 270602Z 17016G22KT 24/20 A2989 RMK A01 T02390197  RH  077%=      5-min Rain = 0
KME1 270603Z 17016KT 24/20 A2989 RMK A01 T02390197  RH  077%=      5-min Rain = 0
KME1 270604Z 18016KT 24/20 A2989 RMK A01 T02400197  RH  077%=      5-min Rain = 0
KME1 270605Z 17015KT 24/20 A2989 RMK A01 T02390197  RH  077%=      5-min Rain = 0
KME1 270606Z 18014G19KT 24/20 A2989 RMK A01 T02390197  RH  077%=      5-min Rain = 0
KME1 270607Z 18017G23KT 24/20 A2989 RMK A01 T02380197  RH  078%=      5-min Rain = 0
KME1 270608Z 17015G22KT 24/20 A2989 RMK A01 T02380197  RH  078%=      5-min Rain = 0
KME1 270609Z 17014G19KT 24/20 A2989 RMK A01 T02380197  RH  078%=      5-min Rain = 0
KME1 270610Z 17013KT 24/20 A2989 RMK A01 T02380198  RH  078%=      5-min Rain = 0
KME1 270611Z 17015KT 24/20 A2989 RMK A01 T02380197  RH  078%=      5-min Rain = 0
KME1 270612Z 18016G21KT 24/20 A2989 RMK A01 T02370198  RH  078%=      5-min Rain = 0
KME1 270613Z 18016G22KT 24/20 A2989 RMK A01 T02370197  RH  078%=      5-min Rain = 0
KME1 270614Z 18018KT 24/20 A2989 RMK A01 T02380197  RH  078%=      5-min Rain = 0
KME1 270615Z 18014G20KT 24/20 A2989 RMK A01 T02380198  RH  078%=      5-min Rain = 0
KME1 270616Z 18015KT 24/20 A2989 RMK A01 T02380198  RH  078%=      5-min Rain = 0
KME1 270617Z 18014KT 24/20 A2989 RMK A01 T02380198  RH  078%=      5-min Rain = 0
KME1 270618Z 18017KT 24/20 A2989 RMK A01 T02380198  RH  078%=      5-min Rain = 0
KME1 270619Z 17014G19KT 24/20 A2989 RMK A01 T02380198  RH  078%=      5-min Rain = 0
KME1 270620Z 18015KT 24/20 A2989 RMK A01 T02380198  RH  078%=      5-min Rain = 0
KME1 270621Z 18016KT 24/20 A2989 RMK A01 T02370198  RH  079%=      5-min Rain = 0
KME1 270622Z 17016KT 24/20 A2989 RMK A01 T02370198  RH  079%=      5-min Rain = 0
KME1 270623Z 18013G19KT 24/20 A2989 RMK A01 T02370198  RH  079%=      5-min Rain = 0
KME1 270624Z 18013G19KT 24/20 A2989 RMK A01 T02360198  RH  079%=      5-min Rain = 0
KME1 270625Z 18015G20KT 24/20 A2988 RMK A01 T02360199  RH  079%=      5-min Rain = 0
KME1 270626Z 18015KT 24/20 A2988 RMK A01 T02360199  RH  079%=      5-min Rain = 0
KME1 270627Z 18017KT 24/20 A2988 RMK A01 T02360198  RH  079%=      5-min Rain = 0
KME1 270628Z 18016KT 24/20 A2988 RMK A01 T02360198  RH  079%=      5-min Rain = 0
KME1 270629Z 18016KT 24/20 A2988 RMK A01 T02370198  RH  079%=      5-min Rain = 0
KME1 270630Z 18015G22KT 24/20 A2988 RMK A01 T02370198  RH  079%=      5-min Rain = 0
KME1 270631Z 18017G22KT 24/20 A2988 RMK A01 T02370198  RH  079%=      5-min Rain = 0
KME1 270632Z 18014G19KT 24/20 A2988 RMK A01 T02370199  RH  079%=      5-min Rain = 0
KME1 270633Z 18013KT 24/20 A2988 RMK A01 T02360199  RH  079%=      5-min Rain = 0
KME1 270634Z 18015KT 24/20 A2988 RMK A01 T02350199  RH  080%=      5-min Rain = 0
KME1 270635Z 18014KT 24/20 A2988 RMK A01 T02350199  RH  080%=      5-min Rain = 0
KME1 270636Z 18015KT 24/20 A2988 RMK A01 T02350198  RH  080%=      5-min Rain = 0
KME1 270637Z 18017KT 24/20 A2988 RMK A01 T02350199  RH  080%=      5-min Rain = 0
KME1 270638Z 18018G24KT 24/20 A2988 RMK A01 T02350198  RH  080%=      5-min Rain = 0
KME1 270639Z 18016G23KT 24/20 A2988 RMK A01 T02360199  RH  079%=      5-min Rain = 0
KME1 270640Z 18014G19KT 24/20 A2988 RMK A01 T02360199  RH  079%=      5-min Rain = 0
KME1 270641Z 19014KT 24/20 A2988 RMK A01 T02360199  RH  080%=      5-min Rain = 0
KME1 270642Z 18015KT 24/20 A2988 RMK A01 T02350199  RH  080%=      5-min Rain = 0
KME1 270643Z 18015G21KT 24/20 A2988 RMK A01 T02350199  RH  080%=      5-min Rain = 0
KME1 270644Z 18016G21KT 24/20 A2988 RMK A01 T02350199  RH  080%=      5-min Rain = 0
KME1 270645Z 18014KT 23/20 A2988 RMK A01 T02340199  RH  080%=      5-min Rain = 0
KME1 270646Z 18013G18KT 24/20 A2988 RMK A01 T02350199  RH  080%=      5-min Rain = 0
KME1 270647Z 18013G18KT 23/20 A2988 RMK A01 T02340199  RH  080%=      5-min Rain = 0
KME1 270648Z 17014G19KT 23/20 A2988 RMK A01 T02340199  RH  081%=      5-min Rain = 0
KME1 270649Z 18017G22KT 23/20 A2988 RMK A01 T02340199  RH  081%=      5-min Rain = 0
KME1 270650Z 18015KT 23/20 A2988 RMK A01 T02340198  RH  080%=      5-min Rain = 0
KME1 270651Z 17013KT 23/20 A2988 RMK A01 T02340199  RH  081%=      5-min Rain = 0
KME1 270652Z 17012G18KT 23/20 A2988 RMK A01 T02330199  RH  081%=      5-min Rain = 0
KME1 270653Z 18014KT 23/20 A2988 RMK A01 T02330199  RH  081%=      5-min Rain = 0
KME1 270654Z 18012KT 23/20 A2988 RMK A01 T02330199  RH  081%=      5-min Rain = 0
KME1 270655Z 18017G22KT 23/20 A2988 RMK A01 T02330199  RH  081%=      5-min Rain = 0
KME1 270656Z 18014G19KT 23/20 A2988 RMK A01 T02320198  RH  081%=      5-min Rain = 0
KME1 270657Z 18015G21KT 23/20 A2988 RMK A01 T02330198  RH  081%=      5-min Rain = 0
KME1 270658Z 18015KT 23/20 A2988 RMK A01 T02320198  RH  081%=      5-min Rain = 0
KME1 270659Z 18016KT 23/20 A2988 RMK A01 T02330198  RH  081%=      5-min Rain = 0
KME1 270700Z 18016G21KT 23/20 A2988 RMK A01 T02330198  RH  081%=      5-min Rain = 0
KME1 270701Z 18014KT 23/20 A2988 RMK A01 T02330199  RH  081%=      5-min Rain = 0
KME1 270702Z 18017KT 23/20 A2988 RMK A01 T02320198  RH  081%=      5-min Rain = 0
KME1 270703Z 18016G21KT 23/20 A2988 RMK A01 T02320198  RH  081%=      5-min Rain = 0
KME1 270704Z 18015KT 23/20 A2988 RMK A01 T02330199  RH  081%=      5-min Rain = 0
KME1 270705Z 18016KT 23/20 A2988 RMK A01 T02320198  RH  081%=      5-min Rain = 0
KME1 270706Z 18018KT 23/20 A2988 RMK A01 T02320198  RH  081%=      5-min Rain = 0
KME1 270707Z 18017G22KT 23/20 A2988 RMK A01 T02320198  RH  081%=      5-min Rain = 0
KME1 270708Z 18015KT 23/20 A2988 RMK A01 T02320198  RH  081%=      5-min Rain = 0
KME1 270709Z 18015KT 23/20 A2987 RMK A01 T02320198  RH  081%=      5-min Rain = 0
KME1 270710Z 18017G25KT 23/20 A2987 RMK A01 T02320198  RH  081%=      5-min Rain = 0
KME1 270711Z 18017KT 23/20 A2987 RMK A01 T02310198  RH  081%=      5-min Rain = 0
KME1 270712Z 18018KT 23/20 A2987 RMK A01 T02320197  RH  081%=      5-min Rain = 0
KME1 270713Z 18017G23KT 23/20 A2987 RMK A01 T02310197  RH  081%=      5-min Rain = 0
KME1 270714Z 18016KT 23/20 A2987 RMK A01 T02320198  RH  081%=      5-min Rain = 0
KME1 270715Z 18020KT 23/20 A2987 RMK A01 T02310197  RH  081%=      5-min Rain = 0
KME1 270716Z 18017G22KT 23/20 A2987 RMK A01 T02310198  RH  081%=      5-min Rain = 0
KME1 270717Z 18013G18KT 23/20 A2987 RMK A01 T02320198  RH  081%=      5-min Rain = 0
KME1 270718Z 18018KT 23/20 A2987 RMK A01 T02310198  RH  082%=      5-min Rain = 0
KME1 270719Z 18016KT 23/20 A2987 RMK A01 T02310198  RH  082%=      5-min Rain = 0
KME1 270720Z 18013KT 23/20 A2988 RMK A01 T02310198  RH  082%=      5-min Rain = 0
KME1 270721Z 18015KT 23/20 A2988 RMK A01 T02310198  RH  082%=      5-min Rain = 0
KME1 270722Z 18016G21KT 23/20 A2987 RMK A01 T02300198  RH  082%=      5-min Rain = 0
KME1 270723Z 18018G24KT 23/20 A2987 RMK A01 T02300198  RH  082%=      5-min Rain = 0
KME1 270724Z 18017G23KT 23/20 A2987 RMK A01 T02300198  RH  082%=      5-min Rain = 0
KME1 270725Z 18016G24KT 23/20 A2987 RMK A01 T02300198  RH  082%=      5-min Rain = 0
KME1 270726Z 18018KT 23/20 A2987 RMK A01 T02300198  RH  082%=      5-min Rain = 0
KME1 270727Z 18017KT 23/20 A2987 RMK A01 T02300198  RH  082%=      5-min Rain = 0
KME1 270728Z 18018G24KT 23/20 A2987 RMK A01 T02300197  RH  082%=      5-min Rain = 0
KME1 270729Z 18017G22KT 23/20 A2987 RMK A01 T02300197  RH  082%=      5-min Rain = 0
KME1 270730Z 18019KT 23/20 A2987 RMK A01 T02300197  RH  081%=      5-min Rain = 0
KME1 270731Z 19017G22KT 23/20 A2987 RMK A01 T02310197  RH  081%=      5-min Rain = 0
KME1 270732Z 18018G25KT 23/20 A2987 RMK A01 T02310197  RH  081%=      5-min Rain = 0
KME1 270733Z 18018KT 23/20 A2987 RMK A01 T02310197  RH  081%=      5-min Rain = 0
KME1 270734Z 19017G24KT 23/20 A2987 RMK A01 T02300197  RH  081%=      5-min Rain = 0
KME1 270735Z 18015G21KT 23/20 A2987 RMK A01 T02300197  RH  081%=      5-min Rain = 0
KME1 270736Z 18020KT 23/20 A2987 RMK A01 T02300197  RH  082%=      5-min Rain = 0
KME1 270737Z 18018G24KT 23/20 A2987 RMK A01 T02300197  RH  082%=      5-min Rain = 0
KME1 270738Z 18020KT 23/20 A2987 RMK A01 T02300197  RH  082%=      5-min Rain = 0
KME1 270739Z 18017G23KT 23/20 A2987 RMK A01 T02300197  RH  082%=      5-min Rain = 0
KME1 270740Z 18015KT 23/20 A2987 RMK A01 T02300197  RH  082%=      5-min Rain = 0
KME1 270741Z 18015KT 23/20 A2987 RMK A01 T02290197  RH  082%=      5-min Rain = 0
KME1 270742Z 18016KT 23/20 A2987 RMK A01 T02290197  RH  082%=      5-min Rain = 0
KME1 270743Z 18015G20KT 23/20 A2987 RMK A01 T02290197  RH  082%=      5-min Rain = 0
KME1 270744Z 18016KT 23/20 A2987 RMK A01 T02280197  RH  083%=      5-min Rain = 0
KME1 270745Z 18018G23KT 23/20 A2987 RMK A01 T02280197  RH  083%=      5-min Rain = 0
KME1 270746Z 18016G21KT 23/20 A2987 RMK A01 T02270196  RH  083%=      5-min Rain = 0
KME1 270747Z 18015G20KT 23/20 A2987 RMK A01 T02270196  RH  083%=      5-min Rain = 0
KME1 270748Z 18016KT 23/20 A2987 RMK A01 T02270197  RH  083%=      5-min Rain = 0
KME1 270749Z 17017G25KT 23/20 A2987 RMK A01 T02280197  RH  083%=      5-min Rain = 0
KME1 270750Z 18016KT 23/20 A2987 RMK A01 T02270197  RH  083%=      5-min Rain = 0
KME1 270751Z 18017G23KT 23/20 A2987 RMK A01 T02270197  RH  083%=      5-min Rain = 0
KME1 270752Z 18015G22KT 23/20 A2987 RMK A01 T02270197  RH  083%=      5-min Rain = 0
KME1 270753Z 18014G21KT 23/20 A2987 RMK A01 T02270197  RH  083%=      5-min Rain = 0
KME1 270754Z 18014G20KT 23/20 A2987 RMK A01 T02260197  RH  084%=      5-min Rain = 0
KME1 270755Z 18016KT 23/20 A2986 RMK A01 T02260197  RH  084%=      5-min Rain = 0
KME1 270756Z 18014G20KT 23/20 A2986 RMK A01 T02260198  RH  084%=      5-min Rain = 0
KME1 270757Z 18015KT 23/20 A2986 RMK A01 T02250197  RH  084%=      5-min Rain = 0
KME1 270758Z 18016G22KT 23/20 A2986 RMK A01 T02250197  RH  084%=      5-min Rain = 0
KME1 270759Z 18015KT 23/20 A2986 RMK A01 T02250197  RH  085%=      5-min Rain = 0
KME1 270800Z 18016KT 22/20 A2986 RMK A01 T02240197  RH  085%=      5-min Rain = 0
KME1 270801Z 18018G23KT 22/20 A2986 RMK A01 T02240197  RH  085%=      5-min Rain = 0
KME1 270802Z 18016KT 22/20 A2986 RMK A01 T02240197  RH  084%=      5-min Rain = 0
KME1 270803Z 18012KT 22/20 A2986 RMK A01 T02240197  RH  085%=      5-min Rain = 0
KME1 270804Z 18015KT 22/20 A2986 RMK A01 T02240197  RH  085%=      5-min Rain = 0
KME1 270805Z 18015G21KT 22/20 A2986 RMK A01 T02240197  RH  085%=      5-min Rain = 0
KME1 270806Z 18017G22KT 22/20 A2986 RMK A01 T02240197  RH  085%=      5-min Rain = 0
KME1 270807Z 18019G24KT 22/20 A2986 RMK A01 T02240197  RH  085%=      5-min Rain = 0
KME1 270808Z 18018G23KT 22/20 A2986 RMK A01 T02240197  RH  084%=      5-min Rain = 0
KME1 270809Z 17014G20KT 22/20 A2986 RMK A01 T02240197  RH  084%=      5-min Rain = 0
KME1 270810Z 18018G23KT 22/20 A2986 RMK A01 T02240197  RH  085%=      5-min Rain = 0
KME1 270811Z 17015KT 22/20 A2986 RMK A01 T02240197  RH  085%=      5-min Rain = 0
KME1 270812Z 18016G22KT 22/20 A2986 RMK A01 T02240197  RH  085%=      5-min Rain = 0
KME1 270813Z 18016KT 22/20 A2986 RMK A01 T02230197  RH  085%=      5-min Rain = 0
KME1 270814Z 18017KT 22/20 A2986 RMK A01 T02230197  RH  085%=      5-min Rain = 0
KME1 270815Z 18014KT 22/20 A2986 RMK A01 T02230197  RH  085%=      5-min Rain = 0
KME1 270816Z 19017G23KT 22/20 A2986 RMK A01 T02230197  RH  085%=      5-min Rain = 0
KME1 270817Z 17014KT 22/20 A2986 RMK A01 T02230197  RH  085%=      5-min Rain = 0
KME1 270818Z 18012KT 22/20 A2986 RMK A01 T02230197  RH  085%=      5-min Rain = 0
KME1 270819Z 18013KT 22/20 A2986 RMK A01 T02220197  RH  086%=      5-min Rain = 0
KME1 270820Z 18016KT 22/20 A2986 RMK A01 T02220197  RH  086%=      5-min Rain = 0
KME1 270821Z 18018G23KT 22/20 A2986 RMK A01 T02220197  RH  086%=      5-min Rain = 0
KME1 270822Z 18015KT 22/20 A2986 RMK A01 T02220197  RH  085%=      5-min Rain = 0
KME1 270823Z 18015G20KT 22/20 A2986 RMK A01 T02220197  RH  086%=      5-min Rain = 0
KME1 270824Z 18017KT 22/20 A2986 RMK A01 T02220197  RH  086%=      5-min Rain = 0
KME1 270825Z 18019KT 22/20 A2986 RMK A01 T02220197  RH  085%=      5-min Rain = 0
KME1 270826Z 18014G19KT 22/20 A2986 RMK A01 T02220197  RH  086%=      5-min Rain = 0
KME1 270827Z 18017G22KT 22/20 A2986 RMK A01 T02220197  RH  086%=      5-min Rain = 0
KME1 270828Z 18015G21KT 22/20 A2986 RMK A01 T02220197  RH  086%=      5-min Rain = 0
KME1 270829Z 18017KT 22/20 A2986 RMK A01 T02220197  RH  086%=      5-min Rain = 0
KME1 270830Z 18016KT 22/20 A2986 RMK A01 T02220197  RH  086%=      5-min Rain = 0
KME1 270831Z 18015G20KT 22/20 A2986 RMK A01 T02210197  RH  086%=      5-min Rain = 0
KME1 270832Z 18016KT 22/20 A2986 RMK A01 T02220197  RH  086%=      5-min Rain = 0
KME1 270833Z 18018G23KT 22/20 A2986 RMK A01 T02220197  RH  086%=      5-min Rain = 0
KME1 270834Z 18015G21KT 22/20 A2986 RMK A01 T02220197  RH  086%=      5-min Rain = 0
KME1 270835Z 18015G21KT 22/20 A2986 RMK A01 T02210197  RH  086%=      5-min Rain = 0
KME1 270836Z 18017G23KT 22/20 A2986 RMK A01 T02210197  RH  086%=      5-min Rain = 0
KME1 270837Z 18011KT 22/20 A2986 RMK A01 T02200196  RH  086%=      5-min Rain = 0
KME1 270838Z 18017G26KT 22/20 A2986 RMK A01 T02200197  RH  087%=      5-min Rain = 0
KME1 270839Z 18019KT 22/20 A2986 RMK A01 T02200196  RH  087%=      5-min Rain = 0
KME1 270840Z 19017KT 22/20 A2986 RMK A01 T02200196  RH  086%=      5-min Rain = 0
KME1 270841Z 18021KT 22/20 A2985 RMK A01 T02200195  RH  086%=      5-min Rain = 0
KME1 270842Z 18018G24KT 22/20 A2986 RMK A01 T02210195  RH  085%=      5-min Rain = 0
KME1 270843Z 18016G21KT 22/20 A2986 RMK A01 T02210195  RH  085%=      5-min Rain = 0
KME1 270844Z 18019G26KT 22/20 A2986 RMK A01 T02210195  RH  085%=      5-min Rain = 0
KME1 270845Z 18019G26KT 22/20 A2985 RMK A01 T02210195  RH  085%=      5-min Rain = 0
KME1 270846Z 18014G19KT 22/19 A2986 RMK A01 T02200194  RH  085%=      5-min Rain = 0
KME1 270847Z 18017G24KT 22/20 A2985 RMK A01 T02200195  RH  086%=      5-min Rain = 0
KME1 270848Z 18018G24KT 22/20 A2986 RMK A01 T02200195  RH  086%=      5-min Rain = 0
KME1 270849Z 18020KT 22/19 A2985 RMK A01 T02200194  RH  085%=      5-min Rain = 0
KME1 270850Z 19017KT 22/19 A2986 RMK A01 T02200194  RH  085%=      5-min Rain = 0
KME1 270851Z 19020G26KT 22/19 A2985 RMK A01 T02200194  RH  085%=      5-min Rain = 0
KME1 270852Z 18021G26KT 22/19 A2985 RMK A01 T02200194  RH  085%=      5-min Rain = 0
KME1 270853Z 18019G25KT 22/19 A2985 RMK A01 T02200193  RH  085%=      5-min Rain = 0
KME1 270854Z 19018G25KT 22/19 A2985 RMK A01 T02200193  RH  085%=      5-min Rain = 0
KME1 270855Z 18020KT 22/19 A2985 RMK A01 T02200194  RH  085%=      5-min Rain = 0
KME1 270856Z 18020G25KT 22/19 A2985 RMK A01 T02200194  RH  085%=      5-min Rain = 0
KME1 270857Z 18019G24KT 22/19 A2985 RMK A01 T02200194  RH  085%=      5-min Rain = 0
KME1 270858Z 18021G30KT 22/19 A2985 RMK A01 T02200193  RH  085%=      5-min Rain = 0
KME1 270859Z 18016KT 22/19 A2985 RMK A01 T02200193  RH  085%=      5-min Rain = 0
KME1 270900Z 18015G22KT 22/19 A2985 RMK A01 T02200194  RH  085%=      5-min Rain = 0
KME1 270901Z 18016KT 22/19 A2985 RMK A01 T02190193  RH  085%=      5-min Rain = 0
KME1 270902Z 19019G27KT 22/19 A2985 RMK A01 T02190194  RH  086%=      5-min Rain = 0
KME1 270903Z 19024G30KT 22/19 A2985 RMK A01 T02190193  RH  085%=      5-min Rain = 0
KME1 270904Z 20018G25KT 22/19 A2986 RMK A01 T02190193  RH  085%=      5-min Rain = 0
KME1 270905Z 19016G24KT 22/19 A2985 RMK A01 T02200193  RH  085%=      5-min Rain = 0
KME1 270906Z 19016G22KT 22/19 A2985 RMK A01 T02190193  RH  085%=      5-min Rain = 0
KME1 270907Z 19017G22KT 22/19 A2985 RMK A01 T02190193  RH  086%=      5-min Rain = 0
KME1 270908Z 18016G22KT 22/19 A2985 RMK A01 T02180193  RH  086%=      5-min Rain = 0
KME1 270909Z 18013G18KT 22/19 A2985 RMK A01 T02180194  RH  086%=      5-min Rain = 0
KME1 270910Z 18016G21KT 22/19 A2985 RMK A01 T02180194  RH  086%=      5-min Rain = 0
KME1 270911Z 18017KT 22/19 A2985 RMK A01 T02170194  RH  086%=      5-min Rain = 0
KME1 270912Z 19017G23KT 22/19 A2985 RMK A01 T02170194  RH  086%=      5-min Rain = 0
KME1 270913Z 18017KT 22/19 A2985 RMK A01 T02180194  RH  086%=      5-min Rain = 0
KME1 270914Z 18018KT 22/19 A2985 RMK A01 T02170193  RH  086%=      5-min Rain = 0
KME1 270915Z 19020G28KT 22/19 A2985 RMK A01 T02180193  RH  086%=      5-min Rain = 0
KME1 270916Z 18017KT 22/19 A2985 RMK A01 T02170193  RH  086%=      5-min Rain = 0
KME1 270917Z 18016G22KT 22/19 A2985 RMK A01 T02170193  RH  086%=      5-min Rain = 0
KME1 270918Z 19013G18KT 22/19 A2985 RMK A01 T02170193  RH  086%=      5-min Rain = 0
KME1 270919Z 19017G22KT 22/19 A2986 RMK A01 T02170193  RH  086%=      5-min Rain = 0
KME1 270920Z 19016KT 22/19 A2986 RMK A01 T02170193  RH  087%=      5-min Rain = 0
KME1 270921Z 19017KT 22/19 A2986 RMK A01 T02160193  RH  087%=      5-min Rain = 0
KME1 270922Z 19017G22KT 22/19 A2985 RMK A01 T02170193  RH  087%=      5-min Rain = 0
KME1 270923Z 18019G24KT 22/19 A2985 RMK A01 T02170193  RH  087%=      5-min Rain = 0
KME1 270924Z 18017G23KT 22/19 A2985 RMK A01 T02160193  RH  086%=      5-min Rain = 0
KME1 270925Z 18016G21KT 22/19 A2986 RMK A01 T02170193  RH  086%=      5-min Rain = 0
KME1 270926Z 18023G31KT 22/19 A2985 RMK A01 T02160193  RH  086%=      5-min Rain = 0
KME1 270927Z 19017G26KT 22/19 A2985 RMK A01 T02160192  RH  086%=      5-min Rain = 0
KME1 270928Z 18018G24KT 22/19 A2985 RMK A01 T02170192  RH  086%=      5-min Rain = 0
KME1 270929Z 18017KT 22/19 A2985 RMK A01 T02170192  RH  086%=      5-min Rain = 0
KME1 270930Z 18019G27KT 22/19 A2985 RMK A01 T02160192  RH  086%=      5-min Rain = 0
KME1 270931Z 18019KT 22/19 A2985 RMK A01 T02160192  RH  086%=      5-min Rain = 0
KME1 270932Z 19019G24KT 22/19 A2986 RMK A01 T02160192  RH  086%=      5-min Rain = 0
KME1 270933Z 18019G24KT 22/19 A2986 RMK A01 T02160192  RH  086%=      5-min Rain = 0
KME1 270934Z 18018KT 22/19 A2986 RMK A01 T02160192  RH  086%=      5-min Rain = 0
KME1 270935Z 19016G22KT 22/19 A2986 RMK A01 T02150192  RH  086%=      5-min Rain = 0
KME1 270936Z 18015G21KT 22/19 A2986 RMK A01 T02150192  RH  087%=      5-min Rain = 0
KME1 270937Z 19015G21KT 22/19 A2986 RMK A01 T02150192  RH  087%=      5-min Rain = 0
KME1 270938Z 19019G25KT 21/19 A2985 RMK A01 T02140192  RH  087%=      5-min Rain = 0
KME1 270939Z 18018G25KT 21/19 A2985 RMK A01 T02140192  RH  087%=      5-min Rain = 0
KME1 270940Z 19021G26KT 21/19 A2985 RMK A01 T02140192  RH  087%=      5-min Rain = 0
KME1 270941Z 18018G23KT 21/19 A2985 RMK A01 T02140191  RH  087%=      5-min Rain = 0
KME1 270942Z 18018KT 22/19 A2986 RMK A01 T02150191  RH  087%=      5-min Rain = 0
KME1 270943Z 18018KT 22/19 A2986 RMK A01 T02150191  RH  087%=      5-min Rain = 0
KME1 270944Z 19018KT 22/19 A2986 RMK A01 T02150192  RH  087%=      5-min Rain = 0
KME1 270945Z 19016G21KT 21/19 A2986 RMK A01 T02140192  RH  087%=      5-min Rain = 0
KME1 270946Z 19018G23KT 21/19 A2986 RMK A01 T02140192  RH  087%=      5-min Rain = 0
KME1 270947Z 19020G25KT 21/19 A2985 RMK A01 T02130191  RH  087%=      5-min Rain = 0
KME1 270948Z 18020G27KT 21/19 A2985 RMK A01 T02130191  RH  087%=      5-min Rain = 0
KME1 270949Z 18020G26KT 21/19 A2985 RMK A01 T02140190  RH  086%=      5-min Rain = 0
KME1 270950Z 18017G23KT 21/19 A2985 RMK A01 T02140191  RH  086%=      5-min Rain = 0
KME1 270951Z 18022G28KT 21/19 A2985 RMK A01 T02140190  RH  087%=      5-min Rain = 0
KME1 270952Z 19020G25KT 21/19 A2985 RMK A01 T02140190  RH  086%=      5-min Rain = 0
KME1 270953Z 18021KT 21/19 A2985 RMK A01 T02140190  RH  086%=      5-min Rain = 0
KME1 270954Z 18020G25KT 21/19 A2985 RMK A01 T02140190  RH  086%=      5-min Rain = 0
KME1 270955Z 18020KT 21/19 A2985 RMK A01 T02140190  RH  086%=      5-min Rain = 0
KME1 270956Z 18016G24KT 21/19 A2985 RMK A01 T02140190  RH  086%=      5-min Rain = 0
KME1 270957Z 18018G23KT 21/19 A2985 RMK A01 T02130190  RH  087%=      5-min Rain = 0
KME1 270958Z 18020G26KT 21/19 A2985 RMK A01 T02130190  RH  086%=      5-min Rain = 0
KME1 270959Z 19018G24KT 21/19 A2985 RMK A01 T02130190  RH  086%=      5-min Rain = 0
KME1 271000Z 17019KT 21/19 A2985 RMK A01 T02130190  RH  086%=      5-min Rain = 0
KME1 271001Z 18019G25KT 21/19 A2985 RMK A01 T02130189  RH  086%=      5-min Rain = 0
KME1 271002Z 18018G24KT 21/19 A2985 RMK A01 T02130189  RH  086%=      5-min Rain = 0
KME1 271003Z 18021KT 21/19 A2985 RMK A01 T02130189  RH  086%=      5-min Rain = 0
KME1 271004Z 18021G27KT 21/19 A2985 RMK A01 T02130189  RH  086%=      5-min Rain = 0
KME1 271005Z 18014KT 21/19 A2985 RMK A01 T02130188  RH  086%=      5-min Rain = 0
KME1 271006Z 18014G20KT 21/19 A2986 RMK A01 T02120189  RH  087%=      5-min Rain = 0
KME1 271007Z 18014KT 21/19 A2986 RMK A01 T02110189  RH  087%=      5-min Rain = 0
KME1 271008Z 18016KT 21/19 A2986 RMK A01 T02110189  RH  087%=      5-min Rain = 0
KME1 271009Z 18021G27KT 21/19 A2986 RMK A01 T02110189  RH  087%=      5-min Rain = 0
KME1 271010Z 19018G24KT 21/19 A2986 RMK A01 T02110188  RH  087%=      5-min Rain = 0
KME1 271011Z 18013KT 21/19 A2986 RMK A01 T02110188  RH  087%=      5-min Rain = 0
KME1 271012Z 18015KT 21/19 A2986 RMK A01 T02110189  RH  087%=      5-min Rain = 0
KME1 271013Z 18017KT 21/19 A2986 RMK A01 T02110189  RH  087%=      5-min Rain = 0
KME1 271014Z 18016KT 21/19 A2986 RMK A01 T02110189  RH  087%=      5-min Rain = 0
KME1 271015Z 18015G20KT 21/19 A2986 RMK A01 T02100189  RH  088%=      5-min Rain = 0
KME1 271016Z 18019G25KT 21/19 A2986 RMK A01 T02100189  RH  088%=      5-min Rain = 0
KME1 271017Z 18016KT 21/19 A2986 RMK A01 T02100189  RH  088%=      5-min Rain = 0
KME1 271018Z 18016G22KT 21/19 A2986 RMK A01 T02100189  RH  088%=      5-min Rain = 0
KME1 271019Z 18018KT 21/19 A2986 RMK A01 T02100189  RH  088%=      5-min Rain = 0
KME1 271020Z 18018G26KT 21/19 A2986 RMK A01 T02100189  RH  088%=      5-min Rain = 0
KME1 271021Z 19015KT 21/19 A2986 RMK A01 T02100189  RH  088%=      5-min Rain = 0
KME1 271022Z 19016KT 21/19 A2986 RMK A01 T02100189  RH  088%=      5-min Rain = 0
KME1 271023Z 19018G24KT 21/19 A2986 RMK A01 T02090189  RH  088%=      5-min Rain = 0
KME1 271024Z 18019KT 21/19 A2986 RMK A01 T02090189  RH  088%=      5-min Rain = 0
KME1 271025Z 18019G26KT 21/19 A2986 RMK A01 T02090189  RH  088%=      5-min Rain = 0
KME1 271026Z 18016G22KT 21/19 A2986 RMK A01 T02090189  RH  088%=      5-min Rain = 0
KME1 271027Z 18014KT 21/19 A2986 RMK A01 T02090189  RH  088%=      5-min Rain = 0
KME1 271028Z 18012KT 21/19 A2986 RMK A01 T02080190  RH  089%=      5-min Rain = 0
KME1 271029Z 18018KT 21/19 A2986 RMK A01 T02080190  RH  090%=      5-min Rain = 0
KME1 271030Z 18018G23KT 21/19 A2986 RMK A01 T02070190  RH  090%=      5-min Rain = 0
KME1 271031Z 19015KT 21/19 A2986 RMK A01 T02070189  RH  089%=      5-min Rain = 0
KME1 271032Z 18015KT 21/19 A2986 RMK A01 T02070189  RH  089%=      5-min Rain = 0
KME1 271033Z 18013G18KT 21/19 A2986 RMK A01 T02070189  RH  089%=      5-min Rain = 0
KME1 271034Z 18015G21KT 21/19 A2986 RMK A01 T02070190  RH  090%=      5-min Rain = 0
KME1 271035Z 18020KT 21/19 A2986 RMK A01 T02070189  RH  090%=      5-min Rain = 0
KME1 271036Z 18015KT 21/19 A2986 RMK A01 T02070189  RH  089%=      5-min Rain = 0
KME1 271037Z 18018KT 21/19 A2987 RMK A01 T02070189  RH  089%=      5-min Rain = 0
KME1 271038Z 18019KT 21/19 A2986 RMK A01 T02070188  RH  089%=      5-min Rain = 0
KME1 271039Z 18016G21KT 21/19 A2986 RMK A01 T02070188  RH  089%=      5-min Rain = 0
KME1 271040Z 18016KT 21/19 A2986 RMK A01 T02070188  RH  089%=      5-min Rain = 0
KME1 271041Z 18018G23KT 21/19 A2986 RMK A01 T02070188  RH  089%=      5-min Rain = 0
KME1 271042Z 18013KT 21/19 A2986 RMK A01 T02070188  RH  089%=      5-min Rain = 0
KME1 271043Z 18017KT 21/19 A2986 RMK A01 T02070188  RH  089%=      5-min Rain = 0
KME1 271044Z 18017KT 21/19 A2986 RMK A01 T02070188  RH  089%=      5-min Rain = 0
KME1 271045Z 18014KT 21/19 A2986 RMK A01 T02070188  RH  089%=      5-min Rain = 0
KME1 271046Z 18016G23KT 21/19 A2986 RMK A01 T02070188  RH  089%=      5-min Rain = 0
KME1 271047Z 18018G25KT 21/19 A2986 RMK A01 T02070188  RH  089%=      5-min Rain = 0
KME1 271048Z 19018G25KT 21/19 A2987 RMK A01 T02070187  RH  089%=      5-min Rain = 0
KME1 271049Z 18016KT 21/19 A2987 RMK A01 T02070187  RH  088%=      5-min Rain = 0
KME1 271050Z 18017KT 21/19 A2987 RMK A01 T02070187  RH  088%=      5-min Rain = 0
KME1 271051Z 18018G23KT 21/19 A2987 RMK A01 T02070187  RH  088%=      5-min Rain = 0
KME1 271052Z 17015KT 21/19 A2987 RMK A01 T02070187  RH  088%=      5-min Rain = 0
KME1 271053Z 18019G25KT 21/19 A2987 RMK A01 T02070187  RH  088%=      5-min Rain = 0
KME1 271054Z 19018G24KT 21/19 A2987 RMK A01 T02070186  RH  088%=      5-min Rain = 0
KME1 271055Z 19014KT 21/19 A2987 RMK A01 T02070186  RH  088%=      5-min Rain = 0
KME1 271056Z 18014KT 21/19 A2987 RMK A01 T02070187  RH  088%=      5-min Rain = 0
KME1 271057Z 18016G22KT 21/19 A2987 RMK A01 T02060187  RH  089%=      5-min Rain = 0
KME1 271058Z 19014G19KT 21/19 A2987 RMK A01 T02060186  RH  088%=      5-min Rain = 0
KME1 271059Z 19013KT 21/19 A2988 RMK A01 T02060186  RH  089%=      5-min Rain = 0
KME1 271100Z 18011G16KT 21/19 A2988 RMK A01 T02060187  RH  089%=      5-min Rain = 0
KME1 271101Z 18012KT 21/19 A2988 RMK A01 T02050187  RH  089%=      5-min Rain = 0
KME1 271102Z 19011G17KT 21/19 A2988 RMK A01 T02050187  RH  089%=      5-min Rain = 0
KME1 271103Z 19012KT 21/19 A2988 RMK A01 T02050187  RH  089%=      5-min Rain = 0
KME1 271104Z 19010KT 21/19 A2988 RMK A01 T02050187  RH  089%=      5-min Rain = 0
KME1 271105Z 19010G15KT 21/19 A2989 RMK A01 T02050187  RH  089%=      5-min Rain = 0
KME1 271106Z 19007G12KT 21/19 A2989 RMK A01 T02050187  RH  089%=      5-min Rain = 0
KME1 271107Z 19008KT 21/19 A299 RMK A01 T02050187  RH  090%=      5-min Rain = 0
KME1 271108Z 21005KT 21/19 A299 RMK A01 T02050187  RH  090%=      5-min Rain = 0
KME1 271109Z 22003KT 20/19 A2991 RMK A01 T02040187  RH  090%=      5-min Rain = 0
KME1 271110Z 24003KT 20/19 A2991 RMK A01 T02040187  RH  090%=      5-min Rain = 0
KME1 271111Z 27003KT 20/19 A2991 RMK A01 T02040187  RH  090%=      5-min Rain = 0
KME1 271112Z 24004KT 20/19 A2991 RMK A01 T02040187  RH  090%=      5-min Rain = 0
KME1 271113Z 27004KT 20/19 A2992 RMK A01 T02040187  RH  090%=      5-min Rain = 0
KME1 271114Z 27003KT 21/19 A2992 RMK A01 T02050187  RH  089%=      5-min Rain = 0
KME1 271115Z 28006KT 21/19 A2992 RMK A01 T02050186  RH  089%=      5-min Rain = 0
KME1 271116Z 32004KT 21/19 A2992 RMK A01 T02070186  RH  088%=      5-min Rain = 0
KME1 271117Z 32007KT 21/19 A2992 RMK A01 T02070186  RH  088%=      5-min Rain = 0
KME1 271118Z 33005KT 21/19 A2992 RMK A01 T02070186  RH  088%=      5-min Rain = 0
KME1 271119Z 30006KT 21/19 A2992 RMK A01 T02070187  RH  088%=      5-min Rain = 0
KME1 271120Z 29005KT 21/19 A2993 RMK A01 T02070187  RH  088%=      5-min Rain = 0
KME1 271121Z 31005KT 21/19 A2993 RMK A01 T02070187  RH  088%=      5-min Rain = 0
KME1 271122Z 29005KT 21/19 A2993 RMK A01 T02070187  RH  088%=      5-min Rain = 0
KME1 271123Z 28003KT 21/19 A2993 RMK A01 T02070188  RH  089%=      5-min Rain = 0
KME1 271124Z 29004KT 21/19 A2993 RMK A01 T02070188  RH  089%=      5-min Rain = 0
KME1 271125Z 27005KT 21/19 A2993 RMK A01 T02070188  RH  089%=      5-min Rain = 0
KME1 271126Z 29004KT 21/19 A2993 RMK A01 T02070187  RH  088%=      5-min Rain = 0
KME1 271127Z 26004KT 21/19 A2993 RMK A01 T02080187  RH  088%=      5-min Rain = 0
KME1 271128Z 24005KT 21/19 A2993 RMK A01 T02080187  RH  088%=      5-min Rain = 0
KME1 271129Z 23004KT 21/19 A2993 RMK A01 T02080186  RH  088%=      5-min Rain = 0
KME1 271130Z 22005KT 21/19 A2992 RMK A01 T02080187  RH  088%=      5-min Rain = 0
KME1 271131Z 19006KT 21/19 A2992 RMK A01 T02080188  RH  088%=      5-min Rain = 0
KME1 271132Z 19008KT 21/19 A2992 RMK A01 T02080187  RH  088%=      5-min Rain = 0
KME1 271133Z 20009KT 21/19 A2992 RMK A01 T02070187  RH  088%=      5-min Rain = 0
KME1 271134Z 20011KT 21/19 A2992 RMK A01 T02070186  RH  088%=      5-min Rain = 0
KME1 271135Z 19009KT 21/19 A2992 RMK A01 T02070187  RH  088%=      5-min Rain = 0
KME1 271136Z 19010KT 21/19 A2991 RMK A01 T02070187  RH  089%=      5-min Rain = 0
KME1 271137Z 19010KT 21/19 A2991 RMK A01 T02060187  RH  089%=      5-min Rain = 0
KME1 271138Z 19009KT 21/19 A2991 RMK A01 T02050187  RH  089%=      5-min Rain = 0
KME1 271139Z 18011KT 21/19 A2991 RMK A01 T02060187  RH  089%=      5-min Rain = 0
KME1 271140Z 18015KT 21/19 A2991 RMK A01 T02060188  RH  089%=      5-min Rain = 0
KME1 271141Z 19011KT 21/19 A2992 RMK A01 T02050187  RH  089%=      5-min Rain = 0
KME1 271142Z 18007KT 21/19 A2992 RMK A01 T02050187  RH  089%=      5-min Rain = 0
KME1 271143Z 18006KT 21/19 A2992 RMK A01 T02050187  RH  090%=      5-min Rain = 0
KME1 271144Z 18009KT 21/19 A2992 RMK A01 T02050188  RH  090%=      5-min Rain = 0
KME1 271145Z 21006KT 20/19 A2992 RMK A01 T02040187  RH  090%=      5-min Rain = 0
KME1 271146Z 20007KT 21/19 A2992 RMK A01 T02050187  RH  089%=      5-min Rain = 0
KME1 271147Z 20004KT 20/19 A2992 RMK A01 T02040187  RH  089%=      5-min Rain = 0
KME1 271148Z 18007KT 21/19 A2992 RMK A01 T02050187  RH  089%=      5-min Rain = 0
KME1 271149Z 19004KT 20/19 A2993 RMK A01 T02040187  RH  090%=      5-min Rain = 0
KME1 271150Z 18004KT 20/19 A2993 RMK A01 T02040188  RH  090%=      5-min Rain = 0
KME1 271151Z 20005KT 20/19 A2993 RMK A01 T02040188  RH  090%=      5-min Rain = 0
KME1 271152Z 23004KT 20/19 A2993 RMK A01 T02040187  RH  090%=      5-min Rain = 0
KME1 271153Z 20004KT 20/19 A2993 RMK A01 T02040188  RH  091%=      5-min Rain = 0
KME1 271154Z 20003KT 20/19 A2993 RMK A01 T02030188  RH  091%=      5-min Rain = 0
KME1 271155Z 21001KT 20/19 A2993 RMK A01 T02030188  RH  091%=      5-min Rain = 0
KME1 271156Z 20000KT 20/19 A2993 RMK A01 T02030187  RH  091%=      5-min Rain = 0
KME1 271157Z 24001KT 20/19 A2993 RMK A01 T02030187  RH  090%=      5-min Rain = 0
KME1 271158Z 25001KT 20/19 A2993 RMK A01 T02040187  RH  090%=      5-min Rain = 0
KME1 271159Z 00000KT 20/19 A2993 RMK A01 T02040188  RH  091%=      5-min Rain = 0
KME1 271200Z 10001KT 20/19 A2993 RMK A01 T02030188  RH  091%=      5-min Rain = 0
KME1 271201Z 15000KT 20/19 A2993 RMK A01 T02030189  RH  092%=      5-min Rain = 0
KME1 271202Z 18002KT 20/19 A2994 RMK A01 T02030190  RH  092%=      5-min Rain = 0
KME1 271203Z 22003KT 20/19 A2994 RMK A01 T02030189  RH  091%=      5-min Rain = 0
KME1 271204Z 18002KT 20/19 A2993 RMK A01 T02030189  RH  091%=      5-min Rain = 0
KME1 271205Z 17002KT 20/19 A2994 RMK A01 T02030189  RH  091%=      5-min Rain = 0
KME1 271206Z 16002KT 20/19 A2994 RMK A01 T02030189  RH  092%=      5-min Rain = 0
KME1 271207Z 15003KT 20/19 A2994 RMK A01 T02030188  RH  091%=      5-min Rain = 0
KME1 271208Z 15003KT 20/19 A2993 RMK A01 T02030189  RH  091%=      5-min Rain = 0
KME1 271209Z 17003KT 20/19 A2994 RMK A01 T02030189  RH  091%=      5-min Rain = 0
KME1 271210Z 17004KT 20/19 A2994 RMK A01 T02040190  RH  092%=      5-min Rain = 0
KME1 271211Z 14004KT 20/19 A2994 RMK A01 T02040190  RH  092%=      5-min Rain = 0
KME1 271212Z 17005KT 20/19 A2994 RMK A01 T02030190  RH  092%=      5-min Rain = 0
KME1 271213Z 17005KT 20/19 A2994 RMK A01 T02030188  RH  091%=      5-min Rain = 0
KME1 271214Z 17003KT 20/19 A2994 RMK A01 T02040189  RH  091%=      5-min Rain = 0
KME1 271215Z 16003KT 20/19 A2994 RMK A01 T02040189  RH  091%=      5-min Rain = 0
KME1 271216Z 16005KT 20/19 A2994 RMK A01 T02040189  RH  091%=      5-min Rain = 0
KME1 271217Z 17004KT 20/19 A2994 RMK A01 T02040188  RH  091%=      5-min Rain = 0
KME1 271218Z 14004KT 20/19 A2994 RMK A01 T02040188  RH  091%=      5-min Rain = 0
KME1 271219Z 14003KT 20/19 A2994 RMK A01 T02040188  RH  090%=      5-min Rain = 0
KME1 271220Z 14003KT 20/19 A2994 RMK A01 T02040188  RH  090%=      5-min Rain = 0
KME1 271221Z 15004KT 20/19 A2994 RMK A01 T02040188  RH  090%=      5-min Rain = 0
KME1 271222Z 15004KT 21/19 A2994 RMK A01 T02050187  RH  089%=      5-min Rain = 0
KME1 271223Z 15003KT 21/19 A2994 RMK A01 T02050188  RH  090%=      5-min Rain = 0
KME1 271224Z 15004KT 21/19 A2994 RMK A01 T02060188  RH  090%=      5-min Rain = 0
KME1 271225Z 16004KT 21/19 A2994 RMK A01 T02060188  RH  090%=      5-min Rain = 0
KME1 271226Z 16005KT 21/19 A2994 RMK A01 T02060188  RH  090%=      5-min Rain = 0
KME1 271227Z 17005KT 21/19 A2994 RMK A01 T02060187  RH  089%=      5-min Rain = 0
KME1 271228Z 15004KT 21/19 A2994 RMK A01 T02060188  RH  089%=      5-min Rain = 0
KME1 271229Z 15003KT 21/19 A2994 RMK A01 T02060187  RH  089%=      5-min Rain = 0
KME1 271230Z 15004KT 21/19 A2994 RMK A01 T02070187  RH  089%=      5-min Rain = 0
KME1 271231Z 15003KT 21/19 A2994 RMK A01 T02070188  RH  089%=      5-min Rain = 0
KME1 271232Z 17004KT 21/19 A2994 RMK A01 T02080188  RH  089%=      5-min Rain = 0
KME1 271233Z 17004KT 21/19 A2994 RMK A01 T02080188  RH  088%=      5-min Rain = 0
KME1 271234Z 16005KT 21/19 A2994 RMK A01 T02080186  RH  087%=      5-min Rain = 0
KME1 271235Z 17004KT 21/19 A2994 RMK A01 T02090187  RH  087%=      5-min Rain = 0
KME1 271236Z 18004KT 21/19 A2994 RMK A01 T02090189  RH  088%=      5-min Rain = 0
KME1 271237Z 18005KT 21/19 A2994 RMK A01 T02100189  RH  088%=      5-min Rain = 0
KME1 271238Z 17006KT 21/19 A2994 RMK A01 T02090187  RH  087%=      5-min Rain = 0
KME1 271239Z 17005KT 21/19 A2994 RMK A01 T02100187  RH  087%=      5-min Rain = 0
KME1 271240Z 17006KT 21/19 A2994 RMK A01 T02100188  RH  087%=      5-min Rain = 0
KME1 271241Z 18007KT 21/19 A2994 RMK A01 T02100187  RH  087%=      5-min Rain = 0
KME1 271242Z 17007KT 21/19 A2994 RMK A01 T02100186  RH  086%=      5-min Rain = 0
KME1 271243Z 18006KT 21/19 A2994 RMK A01 T02100186  RH  086%=      5-min Rain = 0
KME1 271244Z 18005KT 21/19 A2994 RMK A01 T02100187  RH  086%=      5-min Rain = 0
KME1 271245Z 18006KT 21/19 A2994 RMK A01 T02100188  RH  087%=      5-min Rain = 0
KME1 271246Z 19007KT 21/19 A2994 RMK A01 T02100186  RH  086%=      5-min Rain = 0
KME1 271247Z 18007KT 21/19 A2994 RMK A01 T02100186  RH  086%=      5-min Rain = 0
KME1 271248Z 17007KT 21/19 A2994 RMK A01 T02100187  RH  087%=      5-min Rain = 0
KME1 271249Z 17005KT 21/19 A2994 RMK A01 T02100186  RH  086%=      5-min Rain = 0
KME1 271250Z 17007KT 21/19 A2994 RMK A01 T02100187  RH  087%=      5-min Rain = 0
KME1 271251Z 16007KT 21/19 A2994 RMK A01 T02090186  RH  086%=      5-min Rain = 0
KME1 271252Z 18006KT 21/19 A2994 RMK A01 T02100186  RH  086%=      5-min Rain = 0
KME1 271253Z 18006KT 21/19 A2994 RMK A01 T02090185  RH  086%=      5-min Rain = 0
KME1 271254Z 17005KT 21/19 A2994 RMK A01 T02090185  RH  086%=      5-min Rain = 0
KME1 271255Z 16006KT 21/18 A2994 RMK A01 T02090184  RH  086%=      5-min Rain = 0
KME1 271256Z 16007KT 21/18 A2994 RMK A01 T02090183  RH  085%=      5-min Rain = 0
KME1 271257Z 17004KT 21/18 A2994 RMK A01 T02090183  RH  085%=      5-min Rain = 0
KME1 271258Z 17004KT 21/18 A2994 RMK A01 T02090183  RH  085%=      5-min Rain = 0
KME1 271259Z 17004KT 21/18 A2994 RMK A01 T02090183  RH  085%=      5-min Rain = 0
KME1 271300Z 16005KT 21/18 A2994 RMK A01 T02090183  RH  085%=      5-min Rain = 0
KME1 271301Z 15005KT 21/18 A2994 RMK A01 T02090181  RH  084%=      5-min Rain = 0
KME1 271302Z 16004KT 21/18 A2994 RMK A01 T02090181  RH  084%=      5-min Rain = 0
KME1 271303Z 17004KT 21/18 A2994 RMK A01 T02090182  RH  085%=      5-min Rain = 0
KME1 271304Z 16005KT 21/18 A2995 RMK A01 T02090182  RH  085%=      5-min Rain = 0
KME1 271305Z 16005KT 21/18 A2995 RMK A01 T02100182  RH  084%=      5-min Rain = 0
KME1 271306Z 15003KT 21/18 A2995 RMK A01 T02100181  RH  083%=      5-min Rain = 0
KME1 271307Z 15004KT 21/18 A2995 RMK A01 T02100184  RH  085%=      5-min Rain = 0
KME1 271308Z 18007KT 21/18 A2995 RMK A01 T02110183  RH  084%=      5-min Rain = 0
KME1 271309Z 15006KT 21/18 A2995 RMK A01 T02110180  RH  082%=      5-min Rain = 0
KME1 271310Z 16004KT 21/18 A2995 RMK A01 T02110180  RH  083%=      5-min Rain = 0
KME1 271311Z 17004KT 21/18 A2995 RMK A01 T02110181  RH  083%=      5-min Rain = 0
KME1 271312Z 15006KT 21/18 A2995 RMK A01 T02130179  RH  081%=      5-min Rain = 0
KME1 271313Z 16005KT 21/18 A2995 RMK A01 T02140179  RH  081%=      5-min Rain = 0
KME1 271314Z 14006KT 22/18 A2995 RMK A01 T02150182  RH  081%=      5-min Rain = 0
KME1 271315Z 15007KT 22/18 A2995 RMK A01 T02160177  RH  078%=      5-min Rain = 0
KME1 271316Z 16007KT 22/18 A2995 RMK A01 T02170179  RH  079%=      5-min Rain = 0
KME1 271317Z 17007KT 22/18 A2995 RMK A01 T02170180  RH  079%=      5-min Rain = 0
KME1 271318Z 16009KT 22/18 A2995 RMK A01 T02170179  RH  079%=      5-min Rain = 0
KME1 271319Z 17010KT 22/18 A2995 RMK A01 T02170177  RH  078%=      5-min Rain = 0
KME1 271320Z 17009KT 22/18 A2995 RMK A01 T02170176  RH  078%=      5-min Rain = 0
KME1 271321Z 17011KT 22/18 A2995 RMK A01 T02160175  RH  077%=      5-min Rain = 0
KME1 271322Z 17011KT 22/17 A2994 RMK A01 T02160174  RH  077%=      5-min Rain = 0
KME1 271323Z 16010KT 22/17 A2994 RMK A01 T02170174  RH  077%=      5-min Rain = 0
KME1 271324Z 17010KT 22/17 A2994 RMK A01 T02170173  RH  076%=      5-min Rain = 0
KME1 271325Z 17009KT 22/18 A2994 RMK A01 T02170175  RH  077%=      5-min Rain = 0
KME1 271326Z 17012KT 22/17 A2994 RMK A01 T02170173  RH  076%=      5-min Rain = 0
KME1 271327Z 17011KT 22/17 A2994 RMK A01 T02170173  RH  076%=      5-min Rain = 0
KME1 271328Z 17009KT 22/17 A2994 RMK A01 T02170174  RH  077%=      5-min Rain = 0
KME1 271329Z 16011KT 22/17 A2994 RMK A01 T02170173  RH  076%=      5-min Rain = 0
KME1 271330Z 17012KT 22/17 A2994 RMK A01 T02170172  RH  075%=      5-min Rain = 0
KME1 271331Z 16010KT 22/17 A2994 RMK A01 T02170171  RH  075%=      5-min Rain = 0
KME1 271332Z 17010KT 22/18 A2994 RMK A01 T02180175  RH  077%=      5-min Rain = 0
KME1 271333Z 17011KT 22/17 A2994 RMK A01 T02170173  RH  076%=      5-min Rain = 0
KME1 271334Z 17011KT 22/17 A2994 RMK A01 T02170172  RH  075%=      5-min Rain = 0
KME1 271335Z 17008KT 22/17 A2994 RMK A01 T02180173  RH  076%=      5-min Rain = 0
KME1 271336Z 17010KT 22/17 A2994 RMK A01 T02180174  RH  076%=      5-min Rain = 0
KME1 271337Z 18012KT 22/17 A2994 RMK A01 T02180172  RH  075%=      5-min Rain = 0
KME1 271338Z 17012KT 22/17 A2994 RMK A01 T02180172  RH  075%=      5-min Rain = 0
KME1 271339Z 18011KT 22/17 A2994 RMK A01 T02190171  RH  074%=      5-min Rain = 0
KME1 271340Z 19012KT 22/17 A2994 RMK A01 T02180172  RH  075%=      5-min Rain = 0
KME1 271341Z 17012KT 22/17 A2994 RMK A01 T02180173  RH  075%=      5-min Rain = 0
KME1 271342Z 18011KT 22/17 A2994 RMK A01 T02180172  RH  075%=      5-min Rain = 0
KME1 271343Z 17012KT 22/17 A2994 RMK A01 T02190172  RH  075%=      5-min Rain = 0
KME1 271344Z 17011KT 22/17 A2994 RMK A01 T02200170  RH  074%=      5-min Rain = 0
KME1 271345Z 18008KT 22/17 A2994 RMK A01 T02200173  RH  075%=      5-min Rain = 0
KME1 271346Z 18010KT 22/17 A2994 RMK A01 T02200172  RH  074%=      5-min Rain = 0
KME1 271347Z 18010KT 22/17 A2994 RMK A01 T02200171  RH  074%=      5-min Rain = 0
KME1 271348Z 18010KT 22/17 A2993 RMK A01 T02210171  RH  073%=      5-min Rain = 0
KME1 271349Z 18009KT 22/17 A2994 RMK A01 T02210172  RH  074%=      5-min Rain = 0
KME1 271350Z 18012KT 22/17 A2994 RMK A01 T02210171  RH  073%=      5-min Rain = 0
KME1 271351Z 18009KT 22/17 A2994 RMK A01 T02210173  RH  074%=      5-min Rain = 0
KME1 271352Z 17011KT 22/17 A2994 RMK A01 T02220172  RH  073%=      5-min Rain = 0
KME1 271353Z 16011KT 22/17 A2994 RMK A01 T02220173  RH  074%=      5-min Rain = 0
KME1 271354Z 17013KT 22/17 A2994 RMK A01 T02230171  RH  072%=      5-min Rain = 0
KME1 271355Z 17013KT 22/17 A2994 RMK A01 T02230171  RH  072%=      5-min Rain = 0
KME1 271356Z 17011KT 22/17 A2994 RMK A01 T02230169  RH  072%=      5-min Rain = 0
KME1 271357Z 17009KT 22/17 A2994 RMK A01 T02230172  RH  073%=      5-min Rain = 0
KME1 271358Z 17009KT 22/17 A2994 RMK A01 T02230172  RH  073%=      5-min Rain = 0
KME1 271359Z 17009KT 22/17 A2994 RMK A01 T02230173  RH  073%=      5-min Rain = 0
KME1 271400Z 17010KT 22/17 A2994 RMK A01 T02240173  RH  073%=      5-min Rain = 0
KME1 271401Z 17009KT 23/17 A2994 RMK A01 T02250174  RH  073%=      5-min Rain = 0
KME1 271402Z 17010KT 23/17 A2994 RMK A01 T02260173  RH  072%=      5-min Rain = 0
KME1 271403Z 17013KT 23/17 A2993 RMK A01 T02260173  RH  072%=      5-min Rain = 0
KME1 271404Z 17013KT 23/17 A2993 RMK A01 T02260171  RH  071%=      5-min Rain = 0
KME1 271405Z 17013KT 23/17 A2993 RMK A01 T02250172  RH  072%=      5-min Rain = 0
KME1 271406Z 17012KT 23/17 A2993 RMK A01 T02250172  RH  072%=      5-min Rain = 0
KME1 271407Z 17012KT 23/17 A2993 RMK A01 T02250173  RH  072%=      5-min Rain = 0
KME1 271408Z 17010KT 23/17 A2993 RMK A01 T02250173  RH  072%=      5-min Rain = 0
KME1 271409Z 17011KT 23/18 A2993 RMK A01 T02260175  RH  073%=      5-min Rain = 0
KME1 271410Z 17009KT 23/17 A2993 RMK A01 T02260174  RH  073%=      5-min Rain = 0
KME1 271411Z 17012G17KT 23/18 A2993 RMK A01 T02260175  RH  073%=      5-min Rain = 0
KME1 271412Z 17013KT 23/17 A2993 RMK A01 T02270173  RH  072%=      5-min Rain = 0
KME1 271413Z 16013KT 23/17 A2993 RMK A01 T02270173  RH  071%=      5-min Rain = 0
KME1 271414Z 17014KT 23/17 A2993 RMK A01 T02270173  RH  071%=      5-min Rain = 0
KME1 271415Z 17012KT 23/17 A2993 RMK A01 T02270173  RH  071%=      5-min Rain = 0
KME1 271416Z 18010KT 23/18 A2993 RMK A01 T02270175  RH  072%=      5-min Rain = 0
KME1 271417Z 18012KT 23/18 A2993 RMK A01 T02280177  RH  073%=      5-min Rain = 0
KME1 271418Z 17012KT 23/18 A2993 RMK A01 T02280176  RH  072%=      5-min Rain = 0
KME1 271419Z 17012G17KT 23/18 A2993 RMK A01 T02290175  RH  072%=      5-min Rain = 0
KME1 271420Z 17013KT 23/17 A2993 RMK A01 T02290174  RH  071%=      5-min Rain = 0
KME1 271421Z 17012KT 23/17 A2993 RMK A01 T02280174  RH  071%=      5-min Rain = 0
KME1 271422Z 17011G16KT 23/18 A2993 RMK A01 T02280176  RH  072%=      5-min Rain = 0
KME1 271423Z 17010KT 23/18 A2993 RMK A01 T02280176  RH  072%=      5-min Rain = 0
KME1 271424Z 17014KT 23/18 A2993 RMK A01 T02290177  RH  073%=      5-min Rain = 0
KME1 271425Z 18012KT 23/18 A2993 RMK A01 T02290175  RH  072%=      5-min Rain = 0
KME1 271426Z 18010KT 23/18 A2993 RMK A01 T02300176  RH  072%=      5-min Rain = 0
KME1 271427Z 18011G17KT 23/18 A2993 RMK A01 T02290178  RH  073%=      5-min Rain = 0
KME1 271428Z 18012KT 23/18 A2993 RMK A01 T02290176  RH  072%=      5-min Rain = 0
KME1 271429Z 17010KT 23/18 A2993 RMK A01 T02290176  RH  072%=      5-min Rain = 0
KME1 271430Z 19009KT 23/18 A2993 RMK A01 T02290180  RH  073%=      5-min Rain = 0
KME1 271431Z 18011KT 23/18 A2993 RMK A01 T02300179  RH  073%=      5-min Rain = 0
KME1 271432Z 18010KT 23/18 A2993 RMK A01 T02310179  RH  073%=      5-min Rain = 0
KME1 271433Z 19009KT 23/18 A2993 RMK A01 T02310176  RH  071%=      5-min Rain = 0
KME1 271434Z 17012KT 23/18 A2993 RMK A01 T02310179  RH  072%=      5-min Rain = 0
KME1 271435Z 18008G14KT 23/18 A2994 RMK A01 T02320180  RH  073%=      5-min Rain = 0
KME1 271436Z 18011G16KT 23/18 A2993 RMK A01 T02320181  RH  073%=      5-min Rain = 0
KME1 271437Z 17009KT 23/18 A2993 RMK A01 T02330182  RH  073%=      5-min Rain = 0
KME1 271438Z 17011KT 23/18 A2993 RMK A01 T02340181  RH  072%=      5-min Rain = 0
KME1 271439Z 18012KT 24/18 A2993 RMK A01 T02350179  RH  071%=      5-min Rain = 0
KME1 271440Z 17011KT 23/18 A2993 RMK A01 T02340179  RH  071%=      5-min Rain = 0
KME1 271441Z 16011KT 23/18 A2993 RMK A01 T02340178  RH  071%=      5-min Rain = 0
KME1 271442Z 16011G16KT 23/18 A2993 RMK A01 T02340177  RH  071%=      5-min Rain = 0
KME1 271443Z 16011KT 23/18 A2993 RMK A01 T02340179  RH  071%=      5-min Rain = 0
KME1 271444Z 16011KT 24/18 A2993 RMK A01 T02350178  RH  070%=      5-min Rain = 0
KME1 271445Z 17012KT 24/18 A2993 RMK A01 T02350179  RH  071%=      5-min Rain = 0
KME1 271446Z 18011KT 24/18 A2993 RMK A01 T02350179  RH  071%=      5-min Rain = 0
KME1 271447Z 18012KT 24/18 A2993 RMK A01 T02360179  RH  071%=      5-min Rain = 0
KME1 271448Z 18010KT 24/18 A2993 RMK A01 T02360180  RH  071%=      5-min Rain = 0
KME1 271449Z 18009KT 24/18 A2993 RMK A01 T02360181  RH  071%=      5-min Rain = 0
KME1 271450Z 18011KT 24/18 A2993 RMK A01 T02360181  RH  071%=      5-min Rain = 0
KME1 271451Z 17012KT 24/18 A2993 RMK A01 T02360180  RH  071%=      5-min Rain = 0
KME1 271452Z 17014KT 24/18 A2993 RMK A01 T02360179  RH  070%=      5-min Rain = 0
KME1 271453Z 17010KT 24/18 A2993 RMK A01 T02360180  RH  071%=      5-min Rain = 0
KME1 271454Z 18010G15KT 24/18 A2993 RMK A01 T02360183  RH  072%=      5-min Rain = 0
KME1 271455Z 18013KT 24/18 A2993 RMK A01 T02360179  RH  070%=      5-min Rain = 0
KME1 271456Z 17013KT 24/18 A2993 RMK A01 T02360179  RH  070%=      5-min Rain = 0
KME1 271457Z 18013KT 24/18 A2993 RMK A01 T02370181  RH  071%=      5-min Rain = 0
KME1 271458Z 17013KT 24/18 A2993 RMK A01 T02370180  RH  070%=      5-min Rain = 0
KME1 271459Z 18013KT 24/18 A2993 RMK A01 T02370183  RH  071%=      5-min Rain = 0
KME1 271500Z 18010KT 24/18 A2993 RMK A01 T02380181  RH  070%=      5-min Rain = 0
KME1 271501Z 18009KT 24/19 A2993 RMK A01 T02380185  RH  072%=      5-min Rain = 0
KME1 271502Z 18014G19KT 24/18 A2993 RMK A01 T02390182  RH  070%=      5-min Rain = 0
KME1 271503Z 18012KT 24/18 A2993 RMK A01 T02380180  RH  070%=      5-min Rain = 0
KME1 271504Z 18012KT 24/18 A2993 RMK A01 T02380180  RH  070%=      5-min Rain = 0
KME1 271505Z 17009G15KT 24/18 A2993 RMK A01 T02380184  RH  072%=      5-min Rain = 0
KME1 271506Z 17012KT 24/19 A2993 RMK A01 T02400187  RH  072%=      5-min Rain = 0
KME1 271507Z 18011KT 24/18 A2993 RMK A01 T02410184  RH  070%=      5-min Rain = 0
KME1 271508Z 18013KT 24/18 A2993 RMK A01 T02420183  RH  070%=      5-min Rain = 0
KME1 271509Z 16013KT 24/18 A2993 RMK A01 T02410182  RH  070%=      5-min Rain = 0
KME1 271510Z 17012KT 24/18 A2993 RMK A01 T02410183  RH  070%=      5-min Rain = 0
KME1 271511Z 16009KT 24/19 A2993 RMK A01 T02410186  RH  071%=      5-min Rain = 0
KME1 271512Z 17011KT 24/19 A2993 RMK A01 T02420185  RH  070%=      5-min Rain = 0
KME1 271513Z 17011KT 24/18 A2993 RMK A01 T02430184  RH  070%=      5-min Rain = 0
KME1 271514Z 18012KT 24/18 A2993 RMK A01 T02430184  RH  070%=      5-min Rain = 0
KME1 271515Z 18012KT 24/19 A2993 RMK A01 T02430186  RH  070%=      5-min Rain = 0
KME1 271516Z 18013G18KT 24/19 A2993 RMK A01 T02420185  RH  071%=      5-min Rain = 0
KME1 271517Z 17014G19KT 24/18 A2993 RMK A01 T02420184  RH  070%=      5-min Rain = 0
KME1 271518Z 17012KT 24/19 A2993 RMK A01 T02420185  RH  071%=      5-min Rain = 0
KME1 271519Z 17012KT 24/19 A2993 RMK A01 T02420185  RH  070%=      5-min Rain = 0
KME1 271520Z 18013G18KT 24/19 A2993 RMK A01 T02420186  RH  071%=      5-min Rain = 0
KME1 271521Z 17012KT 24/18 A2993 RMK A01 T02420184  RH  070%=      5-min Rain = 0
KME1 271522Z 17014KT 24/18 A2993 RMK A01 T02410184  RH  070%=      5-min Rain = 0
KME1 271523Z 16011KT 24/19 A2993 RMK A01 T02420185  RH  070%=      5-min Rain = 0
KME1 271524Z 17010KT 24/19 A2993 RMK A01 T02420186  RH  071%=      5-min Rain = 0
KME1 271525Z 18010KT 24/19 A2993 RMK A01 T02440187  RH  070%=      5-min Rain = 0
KME1 271526Z 18013KT 25/19 A2993 RMK A01 T02450187  RH  070%=      5-min Rain = 0
KME1 271527Z 18013KT 24/19 A2993 RMK A01 T02440186  RH  070%=      5-min Rain = 0
KME1 271528Z 19011KT 24/19 A2993 RMK A01 T02440188  RH  071%=      5-min Rain = 0
KME1 271529Z 19014KT 24/19 A2993 RMK A01 T02440187  RH  070%=      5-min Rain = 0
KME1 271530Z 19012KT 24/19 A2993 RMK A01 T02440186  RH  070%=      5-min Rain = 0
KME1 271531Z 18010KT 24/19 A2993 RMK A01 T02440189  RH  072%=      5-min Rain = 0
KME1 271532Z 18011KT 24/19 A2993 RMK A01 T02440187  RH  071%=      5-min Rain = 0
KME1 271533Z 18011KT 24/19 A2993 RMK A01 T02440187  RH  070%=      5-min Rain = 0
KME1 271534Z 16013KT 24/19 A2993 RMK A01 T02440187  RH  071%=      5-min Rain = 0
KME1 271535Z 18010G15KT 25/19 A2993 RMK A01 T02450189  RH  071%=      5-min Rain = 0
KME1 271536Z 19012KT 25/19 A2993 RMK A01 T02460190  RH  071%=      5-min Rain = 0
KME1 271537Z 18007KT 25/19 A2993 RMK A01 T02470193  RH  072%=      5-min Rain = 0
KME1 271538Z 17012KT 25/19 A2993 RMK A01 T02480193  RH  071%=      5-min Rain = 0
KME1 271539Z 18012G17KT 25/19 A2993 RMK A01 T02490187  RH  069%=      5-min Rain = 0
KME1 271540Z 17012KT 25/19 A2993 RMK A01 T02470188  RH  070%=      5-min Rain = 0
KME1 271541Z 17013KT 25/19 A2993 RMK A01 T02470189  RH  070%=      5-min Rain = 0
KME1 271542Z 16011KT 25/19 A2993 RMK A01 T02470190  RH  071%=      5-min Rain = 0
KME1 271543Z 17012G18KT 25/19 A2993 RMK A01 T02490191  RH  070%=      5-min Rain = 0
KME1 271544Z 17014KT 25/19 A2993 RMK A01 T02500190  RH  069%=      5-min Rain = 0
KME1 271545Z 17011KT 25/19 A2993 RMK A01 T02480191  RH  070%=      5-min Rain = 0
KME1 271546Z 17012KT 25/19 A2993 RMK A01 T02480191  RH  071%=      5-min Rain = 0
KME1 271547Z 17013KT 25/19 A2993 RMK A01 T02480190  RH  070%=      5-min Rain = 0
KME1 271548Z 19013KT 25/19 A2993 RMK A01 T02480191  RH  071%=      5-min Rain = 0
KME1 271549Z 18013KT 25/19 A2993 RMK A01 T02480192  RH  071%=      5-min Rain = 0
KME1 271550Z 18009KT 25/19 A2993 RMK A01 T02480192  RH  071%=      5-min Rain = 0
KME1 271551Z 18012KT 25/19 A2993 RMK A01 T02490190  RH  070%=      5-min Rain = 0
KME1 271552Z 18016KT 25/19 A2993 RMK A01 T02480191  RH  070%=      5-min Rain = 0
KME1 271553Z 17015G20KT 25/19 A2993 RMK A01 T02470191  RH  071%=      5-min Rain = 0
KME1 271554Z 17014KT 25/19 A2992 RMK A01 T02470189  RH  070%=      5-min Rain = 0
KME1 271555Z 18012G18KT 25/19 A2992 RMK A01 T02470194  RH  072%=      5-min Rain = 0
KME1 271556Z 17013KT 25/19 A2992 RMK A01 T02480191  RH  071%=      5-min Rain = 0
KME1 271557Z 17015KT 25/19 A2992 RMK A01 T02480192  RH  071%=      5-min Rain = 0
KME1 271558Z 18015KT 25/19 A2992 RMK A01 T02470192  RH  071%=      5-min Rain = 0
KME1 271559Z 17012KT 25/19 A2992 RMK A01 T02470192  RH  071%=      5-min Rain = 0
KME1 271600Z 18013KT 25/19 A2992 RMK A01 T02480194  RH  072%=      5-min Rain = 0
KME1 271601Z 18011G16KT 25/19 A2992 RMK A01 T02490194  RH  071%=      5-min Rain = 0
KME1 271602Z 18015KT 25/19 A2992 RMK A01 T02490193  RH  071%=      5-min Rain = 0
KME1 271603Z 18017KT 25/19 A2992 RMK A01 T02490192  RH  071%=      5-min Rain = 0
KME1 271604Z 18014KT 25/19 A2992 RMK A01 T02480192  RH  071%=      5-min Rain = 0
KME1 271605Z 19012KT 25/19 A2992 RMK A01 T02480193  RH  071%=      5-min Rain = 0
KME1 271606Z 19014KT 25/19 A2992 RMK A01 T02480192  RH  071%=      5-min Rain = 0
KME1 271607Z 18010KT 25/20 A2992 RMK A01 T02490196  RH  073%=      5-min Rain = 0
KME1 271608Z 19009KT 25/20 A2992 RMK A01 T02510201  RH  074%=      5-min Rain = 0
KME1 271609Z 19013G18KT 25/20 A2992 RMK A01 T02520197  RH  071%=      5-min Rain = 0
KME1 271610Z 18015KT 25/20 A2992 RMK A01 T02520195  RH  071%=      5-min Rain = 0
KME1 271611Z 19011KT 25/20 A2992 RMK A01 T02510196  RH  071%=      5-min Rain = 0
KME1 271612Z 18014KT 25/19 A2992 RMK A01 T02510194  RH  071%=      5-min Rain = 0
KME1 271613Z 19014KT 25/19 A2992 RMK A01 T02500194  RH  071%=      5-min Rain = 0
KME1 271614Z 19013KT 25/19 A2992 RMK A01 T02500194  RH  071%=      5-min Rain = 0
KME1 271615Z 18011KT 25/19 A2992 RMK A01 T02500194  RH  071%=      5-min Rain = 0
KME1 271616Z 17015KT 25/20 A2992 RMK A01 T02500197  RH  072%=      5-min Rain = 0
KME1 271617Z 17012KT 25/20 A2992 RMK A01 T02510195  RH  071%=      5-min Rain = 0
KME1 271618Z 17014KT 25/20 A2992 RMK A01 T02510197  RH  072%=      5-min Rain = 0
KME1 271619Z 18015KT 25/20 A2992 RMK A01 T02520196  RH  071%=      5-min Rain = 0
KME1 271620Z 18012KT 25/20 A2992 RMK A01 T02520196  RH  071%=      5-min Rain = 0
KME1 271621Z 17011KT 25/20 A2992 RMK A01 T02520197  RH  072%=      5-min Rain = 0
KME1 271622Z 17015KT 25/20 A2992 RMK A01 T02520196  RH  071%=      5-min Rain = 0
KME1 271623Z 17013KT 25/20 A2992 RMK A01 T02520196  RH  071%=      5-min Rain = 0
KME1 271624Z 18013KT 25/20 A2992 RMK A01 T02510197  RH  072%=      5-min Rain = 0
KME1 271625Z 17010KT 25/20 A2992 RMK A01 T02520201  RH  073%=      5-min Rain = 0
KME1 271626Z 16013KT 26/20 A2992 RMK A01 T02550202  RH  073%=      5-min Rain = 0
KME1 271627Z 17012KT 26/20 A2992 RMK A01 T02550201  RH  072%=      5-min Rain = 0
KME1 271628Z 18016KT 26/20 A2992 RMK A01 T02560200  RH  071%=      5-min Rain = 0
KME1 271629Z 18015KT 26/20 A2992 RMK A01 T02550199  RH  071%=      5-min Rain = 0
KME1 271630Z 19011KT 25/20 A2992 RMK A01 T02530198  RH  072%=      5-min Rain = 0
KME1 271631Z 18011KT 25/20 A2992 RMK A01 T02520199  RH  072%=      5-min Rain = 0
KME1 271632Z 21010KT 25/20 A2992 RMK A01 T02540203  RH  074%=      5-min Rain = 0
KME1 271633Z 20010G15KT 26/20 A2992 RMK A01 T02550202  RH  072%=      5-min Rain = 0
KME1 271634Z 20015KT 26/20 A2992 RMK A01 T02570200  RH  071%=      5-min Rain = 0
KME1 271635Z 19012KT 26/20 A2992 RMK A01 T02550198  RH  070%=      5-min Rain = 0
KME1 271636Z 19009KT 25/20 A2992 RMK A01 T02540199  RH  072%=      5-min Rain = 0
KME1 271637Z 19010KT 25/20 A2992 RMK A01 T02540200  RH  072%=      5-min Rain = 0
KME1 271638Z 18013KT 25/20 A2992 RMK A01 T02540200  RH  072%=      5-min Rain = 0
KME1 271639Z 20013KT 25/20 A2992 RMK A01 T02540198  RH  071%=      5-min Rain = 0
KME1 271640Z 19014KT 26/20 A2992 RMK A01 T02550197  RH  070%=      5-min Rain = 0
KME1 271641Z 18012KT 26/20 A2992 RMK A01 T02550199  RH  071%=      5-min Rain = 0
KME1 271642Z 18012KT 26/20 A2991 RMK A01 T02550197  RH  070%=      5-min Rain = 0
KME1 271643Z 19010KT 26/20 A2991 RMK A01 T02550200  RH  072%=      5-min Rain = 0
KME1 271644Z 17013KT 26/20 A2991 RMK A01 T02550201  RH  072%=      5-min Rain = 0
KME1 271645Z 17012KT 26/20 A2991 RMK A01 T02560200  RH  071%=      5-min Rain = 0
KME1 271646Z 16011KT 26/20 A2991 RMK A01 T02570201  RH  071%=      5-min Rain = 0
KME1 271647Z 18009KT 26/20 A2991 RMK A01 T02580202  RH  071%=      5-min Rain = 0
KME1 271648Z 17012KT 26/20 A2991 RMK A01 T02600204  RH  071%=      5-min Rain = 0
KME1 271649Z 18015G21KT 26/20 A2991 RMK A01 T02610203  RH  071%=      5-min Rain = 0
KME1 271650Z 18010KT 26/21 A2992 RMK A01 T02610206  RH  072%=      5-min Rain = 0
KME1 271651Z 18014KT 26/20 A2992 RMK A01 T02610204  RH  071%=      5-min Rain = 0
KME1 271652Z 19014KT 26/20 A2992 RMK A01 T02610204  RH  071%=      5-min Rain = 0
KME1 271653Z 18013KT 26/20 A2991 RMK A01 T02600202  RH  070%=      5-min Rain = 0
KME1 271654Z 18015KT 26/20 A2991 RMK A01 T02590204  RH  071%=      5-min Rain = 0
KME1 271655Z 17012G17KT 26/20 A2991 RMK A01 T02590203  RH  071%=      5-min Rain = 0
KME1 271656Z 19011KT 26/20 A2991 RMK A01 T02580204  RH  072%=      5-min Rain = 0
KME1 271657Z 19009KT 26/21 A2991 RMK A01 T02580206  RH  073%=      5-min Rain = 0
KME1 271658Z 17014KT 26/20 A2991 RMK A01 T02590203  RH  072%=      5-min Rain = 0
KME1 271659Z 17013KT 26/20 A2991 RMK A01 T02590200  RH  070%=      5-min Rain = 0
KME1 271700Z 18014KT 26/20 A2991 RMK A01 T02580202  RH  071%=      5-min Rain = 0
KME1 271701Z 18013KT 26/20 A2991 RMK A01 T02580203  RH  072%=      5-min Rain = 0
KME1 271702Z 17013KT 26/21 A2991 RMK A01 T02590206  RH  073%=      5-min Rain = 0
KME1 271703Z 16013KT 26/20 A2991 RMK A01 T02610202  RH  070%=      5-min Rain = 0
KME1 271704Z 16011KT 26/20 A2991 RMK A01 T02610204  RH  071%=      5-min Rain = 0
KME1 271705Z 17012KT 26/21 A2991 RMK A01 T02620209  RH  072%=      5-min Rain = 0
KME1 271706Z 17012KT 26/21 A2991 RMK A01 T02630206  RH  071%=      5-min Rain = 0
KME1 271707Z 17013KT 26/21 A2991 RMK A01 T02630206  RH  071%=      5-min Rain = 0
KME1 271708Z 17014KT 26/21 A2991 RMK A01 T02630207  RH  071%=      5-min Rain = 0
KME1 271709Z 19013KT 26/21 A2991 RMK A01 T02630205  RH  071%=      5-min Rain = 0
KME1 271710Z 19016KT 26/20 A2991 RMK A01 T02620202  RH  070%=      5-min Rain = 0
KME1 271711Z 18012KT 26/20 A2991 RMK A01 T02600203  RH  071%=      5-min Rain = 0
KME1 271712Z 18012KT 26/21 A2991 RMK A01 T02600207  RH  073%=      5-min Rain = 0
KME1 271713Z 17013KT 26/20 A2991 RMK A01 T02600203  RH  071%=      5-min Rain = 0
KME1 271714Z 17014KT 26/20 A2991 RMK A01 T02600204  RH  071%=      5-min Rain = 0
KME1 271715Z 17014KT 26/20 A2991 RMK A01 T02600203  RH  070%=      5-min Rain = 0
KME1 271716Z 15012KT 26/21 A2991 RMK A01 T02600207  RH  073%=      5-min Rain = 0
KME1 271717Z 17010KT 26/21 A2991 RMK A01 T02620209  RH  073%=      5-min Rain = 0
KME1 271718Z 17015KT 26/21 A2991 RMK A01 T02640206  RH  070%=      5-min Rain = 0
KME1 271719Z 17016KT 26/20 A2991 RMK A01 T02630204  RH  070%=      5-min Rain = 0
KME1 271720Z 17014KT 26/21 A2991 RMK A01 T02620205  RH  071%=      5-min Rain = 0
KME1 271721Z 17012KT 26/21 A2991 RMK A01 T02620206  RH  071%=      5-min Rain = 0
KME1 271722Z 17014KT 26/21 A299 RMK A01 T02620206  RH  071%=      5-min Rain = 0
KME1 271723Z 17013KT 26/21 A2991 RMK A01 T02640207  RH  071%=      5-min Rain = 0
KME1 271724Z 18012KT 27/21 A2991 RMK A01 T02650205  RH  070%=      5-min Rain = 0
KME1 271725Z 17011KT 26/21 A2991 RMK A01 T02640210  RH  072%=      5-min Rain = 0
KME1 271726Z 16012KT 27/21 A2991 RMK A01 T02650208  RH  071%=      5-min Rain = 0
KME1 271727Z 17010KT 27/21 A2991 RMK A01 T02650208  RH  071%=      5-min Rain = 0
KME1 271728Z 17009KT 27/21 A299 RMK A01 T02650209  RH  071%=      5-min Rain = 0
KME1 271729Z 18013KT 27/21 A299 RMK A01 T02660209  RH  071%=      5-min Rain = 0
KME1 271730Z 17011KT 27/21 A299 RMK A01 T02660207  RH  070%=      5-min Rain = 0
KME1 271731Z 18012KT 27/21 A299 RMK A01 T02650212  RH  073%=      5-min Rain = 0
KME1 271732Z 18011KT 27/21 A299 RMK A01 T02670210  RH  071%=      5-min Rain = 0
KME1 271733Z 18011KT 27/21 A299 RMK A01 T02670209  RH  071%=      5-min Rain = 0
KME1 271734Z 17013KT 27/21 A299 RMK A01 T02670206  RH  069%=      5-min Rain = 0
KME1 271735Z 18011KT 27/21 A299 RMK A01 T02660208  RH  071%=      5-min Rain = 0
KME1 271736Z 19009KT 27/21 A299 RMK A01 T02660211  RH  072%=      5-min Rain = 0
KME1 271737Z 19012KT 27/21 A299 RMK A01 T02670211  RH  071%=      5-min Rain = 0
KME1 271738Z 19011KT 27/21 A299 RMK A01 T02680210  RH  071%=      5-min Rain = 0
KME1 271739Z 19013KT 27/21 A299 RMK A01 T02680209  RH  070%=      5-min Rain = 0
KME1 271740Z 21013KT 27/21 A299 RMK A01 T02680206  RH  069%=      5-min Rain = 0
KME1 271741Z 19013KT 27/21 A299 RMK A01 T02680208  RH  070%=      5-min Rain = 0
KME1 271742Z 19010KT 27/21 A299 RMK A01 T02670209  RH  070%=      5-min Rain = 0
KME1 271743Z 18012KT 27/21 A299 RMK A01 T02680208  RH  070%=      5-min Rain = 0
KME1 271744Z 19009KT 27/21 A299 RMK A01 T02670211  RH  071%=      5-min Rain = 0
KME1 271745Z 17008KT 27/21 A299 RMK A01 T02690214  RH  072%=      5-min Rain = 0
KME1 271746Z 18006KT 27/22 A299 RMK A01 T02710215  RH  072%=      5-min Rain = 0
KME1 271747Z 18009KT 27/22 A299 RMK A01 T02730216  RH  071%=      5-min Rain = 0
KME1 271748Z 17008KT 27/21 A299 RMK A01 T02730213  RH  070%=      5-min Rain = 0
KME1 271749Z 17008KT 27/22 A299 RMK A01 T02740216  RH  071%=      5-min Rain = 0
KME1 271750Z 18009G14KT 28/22 A299 RMK A01 T02750221  RH  072%=      5-min Rain = 0
KME1 271751Z 17010KT 28/22 A299 RMK A01 T02770217  RH  070%=      5-min Rain = 0
KME1 271752Z 18010KT 28/21 A299 RMK A01 T02760211  RH  068%=      5-min Rain = 0
KME1 271753Z 17009KT 27/21 A2989 RMK A01 T02740214  RH  070%=      5-min Rain = 0
KME1 271754Z 16011KT 27/21 A2989 RMK A01 T02730211  RH  069%=      5-min Rain = 0
KME1 271755Z 17011KT 27/21 A2989 RMK A01 T02730210  RH  069%=      5-min Rain = 0
KME1 271756Z 17008KT 27/22 A2989 RMK A01 T02740215  RH  070%=      5-min Rain = 0
KME1 271757Z 17010KT 28/22 A2989 RMK A01 T02750215  RH  070%=      5-min Rain = 0
KME1 271758Z 18011KT 28/22 A2989 RMK A01 T02750215  RH  070%=      5-min Rain = 0
KME1 271759Z 18011KT 28/21 A2989 RMK A01 T02750214  RH  069%=      5-min Rain = 0
KME1 271800Z 19011KT 28/21 A2989 RMK A01 T02750214  RH  069%=      5-min Rain = 0
KME1 271801Z 18014KT 28/21 A2989 RMK A01 T02750212  RH  068%=      5-min Rain = 0
KME1 271802Z 19015KT 28/21 A2989 RMK A01 T02750212  RH  069%=      5-min Rain = 0
KME1 271803Z 19012KT 27/21 A2989 RMK A01 T02740211  RH  068%=      5-min Rain = 0
KME1 271804Z 19012KT 27/21 A2989 RMK A01 T02740213  RH  069%=      5-min Rain = 0
KME1 271805Z 18011G16KT 27/21 A2989 RMK A01 T02740212  RH  069%=      5-min Rain = 0
KME1 271806Z 17012KT 28/21 A2989 RMK A01 T02750213  RH  069%=      5-min Rain = 0
KME1 271807Z 17013KT 28/21 A2989 RMK A01 T02750213  RH  069%=      5-min Rain = 0
KME1 271808Z 18011KT 28/21 A2989 RMK A01 T02750213  RH  069%=      5-min Rain = 0
KME1 271809Z 17012KT 28/21 A2989 RMK A01 T02760214  RH  069%=      5-min Rain = 0
KME1 271810Z 18013KT 28/21 A2989 RMK A01 T02760212  RH  068%=      5-min Rain = 0
KME1 271811Z 17010KT 28/22 A2989 RMK A01 T02760216  RH  070%=      5-min Rain = 0
KME1 271812Z 19009KT 28/22 A2989 RMK A01 T02770216  RH  069%=      5-min Rain = 0
KME1 271813Z 19009KT 28/21 A2989 RMK A01 T02780212  RH  067%=      5-min Rain = 0
KME1 271814Z 18009KT 28/22 A2989 RMK A01 T02780218  RH  070%=      5-min Rain = 0
KME1 271815Z 17007KT 28/22 A2989 RMK A01 T02800221  RH  070%=      5-min Rain = 0
KME1 271816Z 17010KT 28/22 A2989 RMK A01 T02820221  RH  069%=      5-min Rain = 0
KME1 271817Z 18011KT 28/22 A2989 RMK A01 T02820218  RH  068%=      5-min Rain = 0
KME1 271818Z 18012KT 28/22 A2989 RMK A01 T02820215  RH  067%=      5-min Rain = 0
KME1 271819Z 17013KT 28/21 A2988 RMK A01 T02790214  RH  067%=      5-min Rain = 0
KME1 271820Z 18014KT 28/21 A2988 RMK A01 T02770212  RH  068%=      5-min Rain = 0
KME1 271821Z 18011KT 28/21 A2988 RMK A01 T02750214  RH  069%=      5-min Rain = 0
KME1 271822Z 17011KT 27/21 A2988 RMK A01 T02730212  RH  069%=      5-min Rain = 0
KME1 271823Z 18012KT 27/21 A2988 RMK A01 T02720211  RH  069%=      5-min Rain = 0
KME1 271824Z 18014KT 27/21 A2988 RMK A01 T02740213  RH  069%=      5-min Rain = 0
KME1 271825Z 19013KT 28/22 A2988 RMK A01 T02760215  RH  069%=      5-min Rain = 0
KME1 271826Z 18015KT 28/22 A2988 RMK A01 T02780216  RH  069%=      5-min Rain = 0
KME1 271827Z 18014KT 28/22 A2988 RMK A01 T02790215  RH  068%=      5-min Rain = 0
KME1 271828Z 19014KT 28/21 A2988 RMK A01 T02790214  RH  068%=      5-min Rain = 0
KME1 271829Z 19014KT 28/21 A2988 RMK A01 T02790212  RH  067%=      5-min Rain = 0
KME1 271830Z 18015KT 28/21 A2988 RMK A01 T02780212  RH  067%=      5-min Rain = 0
KME1 271831Z 19010G15KT 28/22 A2988 RMK A01 T02790215  RH  068%=      5-min Rain = 0
KME1 271832Z 18015KT 28/21 A2988 RMK A01 T02790213  RH  067%=      5-min Rain = 0
KME1 271833Z 18013G19KT 28/21 A2987 RMK A01 T02790213  RH  067%=      5-min Rain = 0
KME1 271834Z 19014KT 28/21 A2987 RMK A01 T02800212  RH  067%=      5-min Rain = 0
KME1 271835Z 19010KT 28/21 A2987 RMK A01 T02780212  RH  067%=      5-min Rain = 0
KME1 271836Z 19010KT 28/22 A2987 RMK A01 T02790216  RH  069%=      5-min Rain = 0
KME1 271837Z 18012KT 28/22 A2987 RMK A01 T02810217  RH  068%=      5-min Rain = 0
KME1 271838Z 17014KT 28/21 A2987 RMK A01 T02820213  RH  066%=      5-min Rain = 0
KME1 271839Z 16013KT 28/22 A2987 RMK A01 T02820215  RH  067%=      5-min Rain = 0
KME1 271840Z 17013G18KT 28/22 A2987 RMK A01 T02830215  RH  067%=      5-min Rain = 0
KME1 271841Z 17012KT 28/22 A2987 RMK A01 T02840217  RH  067%=      5-min Rain = 0
KME1 271842Z 18013KT 28/22 A2987 RMK A01 T02840215  RH  066%=      5-min Rain = 0
KME1 271843Z 19013KT 28/21 A2987 RMK A01 T02830213  RH  066%=      5-min Rain = 0
KME1 271844Z 18011KT 28/21 A2987 RMK A01 T02820214  RH  067%=      5-min Rain = 0
KME1 271845Z 18013KT 28/22 A2987 RMK A01 T02820217  RH  068%=      5-min Rain = 0
KME1 271846Z 18013KT 28/22 A2987 RMK A01 T02830217  RH  067%=      5-min Rain = 0
KME1 271847Z 19011KT 28/22 A2987 RMK A01 T02840216  RH  067%=      5-min Rain = 0
KME1 271848Z 19011KT 28/22 A2987 RMK A01 T02840216  RH  067%=      5-min Rain = 0
KME1 271849Z 18012KT 28/22 A2987 RMK A01 T02840216  RH  066%=      5-min Rain = 0
KME1 271850Z 18012KT 28/22 A2987 RMK A01 T02840216  RH  067%=      5-min Rain = 0
KME1 271851Z 18014KT 28/22 A2987 RMK A01 T02840215  RH  066%=      5-min Rain = 0
KME1 271852Z 18012KT 28/22 A2987 RMK A01 T02840216  RH  067%=      5-min Rain = 0
KME1 271853Z 18011KT 28/22 A2987 RMK A01 T02840220  RH  068%=      5-min Rain = 0
KME1 271854Z 17011KT 29/22 A2987 RMK A01 T02860219  RH  067%=      5-min Rain = 0
KME1 271855Z 17012G17KT 29/22 A2987 RMK A01 T02880223  RH  068%=      5-min Rain = 0
KME1 271856Z 16015G20KT 29/22 A2987 RMK A01 T02890216  RH  065%=      5-min Rain = 0
KME1 271857Z 16014G19KT 29/22 A2987 RMK A01 T02890216  RH  065%=      5-min Rain = 0
KME1 271858Z 17016KT 29/22 A2987 RMK A01 T02870215  RH  065%=      5-min Rain = 0
KME1 271859Z 18011KT 29/22 A2987 RMK A01 T02850216  RH  066%=      5-min Rain = 0
KME1 271900Z 18012KT 28/22 A2987 RMK A01 T02840219  RH  068%=      5-min Rain = 0
KME1 271901Z 18011KT 29/22 A2987 RMK A01 T02850217  RH  067%=      5-min Rain = 0
KME1 271902Z 18010KT 29/22 A2987 RMK A01 T02860221  RH  068%=      5-min Rain = 0
KME1 271903Z 18014G19KT 29/22 A2987 RMK A01 T02870218  RH  066%=      5-min Rain = 0
KME1 271904Z 18015KT 29/21 A2987 RMK A01 T02870212  RH  064%=      5-min Rain = 0
KME1 271905Z 19014KT 29/21 A2987 RMK A01 T02860214  RH  065%=      5-min Rain = 0
KME1 271906Z 19010KT 29/21 A2986 RMK A01 T02850211  RH  064%=      5-min Rain = 0
KME1 271907Z 18011G16KT 29/22 A2986 RMK A01 T02850218  RH  067%=      5-min Rain = 0
KME1 271908Z 17013KT 29/22 A2986 RMK A01 T02880218  RH  066%=      5-min Rain = 0
KME1 271909Z 17013KT 29/22 A2986 RMK A01 T02880216  RH  065%=      5-min Rain = 0
KME1 271910Z 18013KT 29/22 A2986 RMK A01 T02890216  RH  065%=      5-min Rain = 0
KME1 271911Z 17011KT 29/21 A2986 RMK A01 T02880214  RH  064%=      5-min Rain = 0
KME1 271912Z 17010KT 29/22 A2986 RMK A01 T02870220  RH  067%=      5-min Rain = 0
KME1 271913Z 17013KT 29/22 A2986 RMK A01 T02890219  RH  066%=      5-min Rain = 0
KME1 271914Z 18014KT 29/22 A2986 RMK A01 T02890216  RH  065%=      5-min Rain = 0
KME1 271915Z 18014KT 29/22 A2986 RMK A01 T02890216  RH  065%=      5-min Rain = 0
KME1 271916Z 18013KT 29/22 A2986 RMK A01 T02880217  RH  065%=      5-min Rain = 0
KME1 271917Z 17012KT 29/22 A2986 RMK A01 T02870216  RH  065%=      5-min Rain = 0
KME1 271918Z 18013KT 29/22 A2986 RMK A01 T02870217  RH  066%=      5-min Rain = 0
KME1 271919Z 18014G21KT 29/22 A2986 RMK A01 T02880218  RH  066%=      5-min Rain = 0
KME1 271920Z 18017KT 29/21 A2986 RMK A01 T02880213  RH  064%=      5-min Rain = 0
KME1 271921Z 18014G19KT 29/22 A2986 RMK A01 T02880215  RH  065%=      5-min Rain = 0
KME1 271922Z 18012KT 29/22 A2986 RMK A01 T02880217  RH  065%=      5-min Rain = 0
KME1 271923Z 18012G17KT 29/22 A2986 RMK A01 T02890218  RH  065%=      5-min Rain = 0
KME1 271924Z 20011KT 29/22 A2986 RMK A01 T02890218  RH  065%=      5-min Rain = 0
KME1 271925Z 18012KT 29/22 A2986 RMK A01 T02890217  RH  065%=      5-min Rain = 0
KME1 271926Z 18013KT 29/21 A2986 RMK A01 T02890214  RH  064%=      5-min Rain = 0
KME1 271927Z 19010KT 29/22 A2986 RMK A01 T02890217  RH  065%=      5-min Rain = 0
KME1 271928Z 17011KT 29/22 A2986 RMK A01 T02880216  RH  065%=      5-min Rain = 0
KME1 271929Z 19015KT 29/22 A2986 RMK A01 T02880216  RH  065%=      5-min Rain = 0
KME1 271930Z 17013KT 29/22 A2986 RMK A01 T02900220  RH  066%=      5-min Rain = 0
KME1 271931Z 17013KT 29/22 A2986 RMK A01 T02910218  RH  065%=      5-min Rain = 0
KME1 271932Z 18012KT 29/22 A2986 RMK A01 T02910218  RH  065%=      5-min Rain = 0
KME1 271933Z 18011KT 29/22 A2986 RMK A01 T02910219  RH  065%=      5-min Rain = 0
KME1 271934Z 17012KT 29/22 A2986 RMK A01 T02910219  RH  065%=      5-min Rain = 0
KME1 271935Z 17013KT 29/22 A2986 RMK A01 T02910218  RH  065%=      5-min Rain = 0
KME1 271936Z 17013KT 29/22 A2985 RMK A01 T02910217  RH  064%=      5-min Rain = 0
KME1 271937Z 17012KT 29/22 A2986 RMK A01 T02910218  RH  065%=      5-min Rain = 0
KME1 271938Z 18010KT 29/22 A2985 RMK A01 T02910219  RH  065%=      5-min Rain = 0
KME1 271939Z 18012G19KT 29/22 A2985 RMK A01 T02920222  RH  066%=      5-min Rain = 0
KME1 271940Z 17014KT 29/22 A2985 RMK A01 T02930217  RH  064%=      5-min Rain = 0
KME1 271941Z 16015KT 29/22 A2985 RMK A01 T02920216  RH  064%=      5-min Rain = 0
KME1 271942Z 17010KT 29/22 A2985 RMK A01 T02920219  RH  065%=      5-min Rain = 0
KME1 271943Z 18013KT 29/22 A2985 RMK A01 T02920220  RH  065%=      5-min Rain = 0
KME1 271944Z 18011KT 29/22 A2985 RMK A01 T02930220  RH  065%=      5-min Rain = 0
KME1 271945Z 18010KT 29/22 A2985 RMK A01 T02920220  RH  065%=      5-min Rain = 0
KME1 271946Z 17011G18KT 29/22 A2985 RMK A01 T02920220  RH  065%=      5-min Rain = 0
KME1 271947Z 14013KT 29/22 A2985 RMK A01 T02930218  RH  064%=      5-min Rain = 0
KME1 271948Z 17013G19KT 29/22 A2985 RMK A01 T02940221  RH  065%=      5-min Rain = 0
KME1 271949Z 18014KT 30/22 A2985 RMK A01 T02960217  RH  063%=      5-min Rain = 0
KME1 271950Z 18014KT 29/22 A2985 RMK A01 T02940219  RH  064%=      5-min Rain = 0
KME1 271951Z 19012KT 29/22 A2985 RMK A01 T02930217  RH  063%=      5-min Rain = 0
KME1 271952Z 19013KT 29/22 A2984 RMK A01 T02920216  RH  063%=      5-min Rain = 0
KME1 271953Z 18012G17KT 29/22 A2984 RMK A01 T02920217  RH  064%=      5-min Rain = 0
KME1 271954Z 20011KT 29/21 A2984 RMK A01 T02920212  RH  062%=      5-min Rain = 0
KME1 271955Z 18013G18KT 29/22 A2984 RMK A01 T02910219  RH  065%=      5-min Rain = 0
KME1 271956Z 16015KT 29/22 A2984 RMK A01 T02930217  RH  064%=      5-min Rain = 0
KME1 271957Z 16014KT 29/21 A2984 RMK A01 T02930214  RH  063%=      5-min Rain = 0
KME1 271958Z 16011KT 29/22 A2984 RMK A01 T02940217  RH  063%=      5-min Rain = 0
KME1 271959Z 17011KT 30/22 A2984 RMK A01 T02950216  RH  063%=      5-min Rain = 0
KME1 272000Z 15010KT 29/22 A2984 RMK A01 T02940218  RH  063%=      5-min Rain = 0
KME1 272001Z 15011KT 30/22 A2984 RMK A01 T02950218  RH  063%=      5-min Rain = 0
KME1 272002Z 17013KT 30/22 A2984 RMK A01 T02970221  RH  063%=      5-min Rain = 0
KME1 272003Z 19012KT 30/22 A2984 RMK A01 T02980218  RH  062%=      5-min Rain = 0
KME1 272004Z 17013G19KT 30/22 A2984 RMK A01 T02960216  RH  062%=      5-min Rain = 0
KME1 272005Z 16013KT 30/22 A2984 RMK A01 T02950215  RH  062%=      5-min Rain = 0
KME1 272006Z 16014KT 30/22 A2984 RMK A01 T02950215  RH  062%=      5-min Rain = 0
KME1 272007Z 15015KT 30/21 A2984 RMK A01 T02950214  RH  062%=      5-min Rain = 0
KME1 272008Z 17010KT 30/22 A2984 RMK A01 T02950217  RH  063%=      5-min Rain = 0
KME1 272009Z 17010KT 30/22 A2984 RMK A01 T02960220  RH  064%=      5-min Rain = 0
KME1 272010Z 15012KT 30/22 A2983 RMK A01 T02970217  RH  062%=      5-min Rain = 0
KME1 272011Z 14013KT 30/22 A2983 RMK A01 T02970216  RH  062%=      5-min Rain = 0
KME1 272012Z 16011G16KT 30/22 A2983 RMK A01 T02980219  RH  063%=      5-min Rain = 0
KME1 272013Z 18012KT 30/22 A2983 RMK A01 T02980222  RH  064%=      5-min Rain = 0
KME1 272014Z 18013KT 30/22 A2983 RMK A01 T02990219  RH  062%=      5-min Rain = 0
KME1 272015Z 19012KT 30/22 A2983 RMK A01 T02970216  RH  062%=      5-min Rain = 0
KME1 272016Z 18011KT 29/22 A2983 RMK A01 T02940215  RH  062%=      5-min Rain = 0
KME1 272017Z 19010KT 29/21 A2983 RMK A01 T02920213  RH  063%=      5-min Rain = 0
KME1 272018Z 18007KT 29/22 A2983 RMK A01 T02910219  RH  065%=      5-min Rain = 0
KME1 272019Z 17010KT 29/22 A2983 RMK A01 T02920222  RH  066%=      5-min Rain = 0
KME1 272020Z 18013G18KT 30/22 A2983 RMK A01 T02950219  RH  064%=      5-min Rain = 0
KME1 272021Z 18011KT 30/22 A2983 RMK A01 T02960219  RH  063%=      5-min Rain = 0
KME1 272022Z 18013KT 30/22 A2983 RMK A01 T02960215  RH  062%=      5-min Rain = 0
KME1 272023Z 17012KT 30/22 A2983 RMK A01 T02950216  RH  063%=      5-min Rain = 0
KME1 272024Z 17012KT 30/22 A2983 RMK A01 T02950219  RH  064%=      5-min Rain = 0
KME1 272025Z 18013KT 30/22 A2983 RMK A01 T02960216  RH  062%=      5-min Rain = 0
KME1 272026Z 17010KT 30/22 A2983 RMK A01 T02960219  RH  063%=      5-min Rain = 0
KME1 272027Z 17013KT 30/22 A2983 RMK A01 T02960220  RH  064%=      5-min Rain = 0
KME1 272028Z 17014KT 30/22 A2983 RMK A01 T02970215  RH  061%=      5-min Rain = 0
KME1 272029Z 16012KT 30/22 A2983 RMK A01 T02980218  RH  062%=      5-min Rain = 0
KME1 272030Z 16012KT 30/22 A2982 RMK A01 T02980221  RH  063%=      5-min Rain = 0
KME1 272031Z 16011KT 30/22 A2982 RMK A01 T02990219  RH  062%=      5-min Rain = 0
KME1 272032Z 18011KT 30/22 A2982 RMK A01 T03000218  RH  062%=      5-min Rain = 0
KME1 272033Z 16009KT 30/22 A2982 RMK A01 T02990222  RH  063%=      5-min Rain = 0
KME1 272034Z 17011G16KT 30/22 A2982 RMK A01 T03000222  RH  063%=      5-min Rain = 0
KME1 272035Z 17015KT 30/22 A2982 RMK A01 T03010221  RH  062%=      5-min Rain = 0
KME1 272036Z 16013KT 30/22 A2982 RMK A01 T03010215  RH  060%=      5-min Rain = 0
KME1 272037Z 17010G15KT 30/22 A2982 RMK A01 T03000219  RH  062%=      5-min Rain = 0
KME1 272038Z 17014G20KT 30/22 A2982 RMK A01 T03000221  RH  063%=      5-min Rain = 0
KME1 272039Z 16015KT 30/22 A2982 RMK A01 T03000215  RH  060%=      5-min Rain = 0
KME1 272040Z 17011KT 30/22 A2982 RMK A01 T03000216  RH  061%=      5-min Rain = 0
KME1 272041Z 19012KT 30/22 A2982 RMK A01 T03000220  RH  062%=      5-min Rain = 0
KME1 272042Z 18010KT 30/22 A2982 RMK A01 T03000216  RH  061%=      5-min Rain = 0
KME1 272043Z 19013G19KT 30/22 A2982 RMK A01 T02990219  RH  062%=      5-min Rain = 0
KME1 272044Z 18011KT 30/21 A2982 RMK A01 T02990213  RH  060%=      5-min Rain = 0
KME1 272045Z 18009KT 30/22 A2982 RMK A01 T02980219  RH  063%=      5-min Rain = 0
KME1 272046Z 18009KT 30/22 A2982 RMK A01 T02980217  RH  062%=      5-min Rain = 0
KME1 272047Z 17010KT 30/22 A2982 RMK A01 T02990224  RH  064%=      5-min Rain = 0
KME1 272048Z 18013KT 30/22 A2982 RMK A01 T03000221  RH  063%=      5-min Rain = 0
KME1 272049Z 18010KT 30/22 A2982 RMK A01 T03010217  RH  061%=      5-min Rain = 0
KME1 272050Z 18009KT 30/22 A2982 RMK A01 T03000217  RH  061%=      5-min Rain = 0
KME1 272051Z 18012KT 30/22 A2982 RMK A01 T03000218  RH  061%=      5-min Rain = 0
KME1 272052Z 18011KT 30/22 A2982 RMK A01 T03000217  RH  061%=      5-min Rain = 0
KME1 272053Z 16012G18KT 30/22 A2982 RMK A01 T03000217  RH  061%=      5-min Rain = 0
KME1 272054Z 16013KT 30/21 A2982 RMK A01 T03000214  RH  060%=      5-min Rain = 0
KME1 272055Z 16015KT 30/21 A2982 RMK A01 T03010214  RH  060%=      5-min Rain = 0
KME1 272056Z 17015KT 30/21 A2982 RMK A01 T03010214  RH  060%=      5-min Rain = 0
KME1 272057Z 18011KT 30/22 A2982 RMK A01 T03010218  RH  061%=      5-min Rain = 0
KME1 272058Z 18012KT 30/22 A2982 RMK A01 T03000220  RH  062%=      5-min Rain = 0
KME1 272059Z 18013KT 30/22 A2982 RMK A01 T02990218  RH  062%=      5-min Rain = 0
KME1 272100Z 19010KT 30/22 A2982 RMK A01 T02980217  RH  062%=      5-min Rain = 0
KME1 272101Z 18011KT 30/22 A2982 RMK A01 T02970216  RH  062%=      5-min Rain = 0
KME1 272102Z 17013KT 30/22 A2982 RMK A01 T02960216  RH  062%=      5-min Rain = 0
KME1 272103Z 16010KT 30/22 A2982 RMK A01 T02950215  RH  062%=      5-min Rain = 0
KME1 272104Z 16009KT 30/22 A2981 RMK A01 T02960219  RH  063%=      5-min Rain = 0
KME1 272105Z 17010KT 30/22 A2981 RMK A01 T02980219  RH  063%=      5-min Rain = 0
KME1 272106Z 17011KT 30/22 A2981 RMK A01 T02990218  RH  062%=      5-min Rain = 0
KME1 272107Z 17010KT 30/22 A2981 RMK A01 T02990216  RH  061%=      5-min Rain = 0
KME1 272108Z 17009G17KT 30/22 A2981 RMK A01 T02990222  RH  063%=      5-min Rain = 0
KME1 272109Z 18013KT 30/22 A2981 RMK A01 T03000217  RH  061%=      5-min Rain = 0
KME1 272110Z 15011KT 30/22 A2981 RMK A01 T03000222  RH  063%=      5-min Rain = 0
KME1 272111Z 16012KT 30/22 A2981 RMK A01 T03010219  RH  062%=      5-min Rain = 0
KME1 272112Z 17012KT 30/22 A2981 RMK A01 T03010220  RH  062%=      5-min Rain = 0
KME1 272113Z 17013KT 30/22 A2981 RMK A01 T03020217  RH  061%=      5-min Rain = 0
KME1 272114Z 17015KT 30/22 A2981 RMK A01 T03010216  RH  060%=      5-min Rain = 0
KME1 272115Z 18015KT 30/21 A2981 RMK A01 T03000213  RH  060%=      5-min Rain = 0
KME1 272116Z 18012KT 30/22 A2981 RMK A01 T02980215  RH  061%=      5-min Rain = 0
KME1 272117Z 18012KT 30/22 A2981 RMK A01 T02970217  RH  062%=      5-min Rain = 0
KME1 272118Z 18011KT 30/22 A2981 RMK A01 T02970216  RH  062%=      5-min Rain = 0
KME1 272119Z 18016G21KT 30/22 A2981 RMK A01 T02970215  RH  061%=      5-min Rain = 0
KME1 272120Z 18015KT 30/21 A2981 RMK A01 T02970214  RH  061%=      5-min Rain = 0
KME1 272121Z 18014KT 30/21 A298 RMK A01 T02970214  RH  061%=      5-min Rain = 0
KME1 272122Z 17014G19KT 30/22 A298 RMK A01 T02960216  RH  062%=      5-min Rain = 0
KME1 272123Z 18014KT 30/21 A298 RMK A01 T02960214  RH  061%=      5-min Rain = 0
KME1 272124Z 18013KT 30/22 A298 RMK A01 T02960215  RH  062%=      5-min Rain = 0
KME1 272125Z 18011KT 30/22 A298 RMK A01 T02960215  RH  062%=      5-min Rain = 0
KME1 272126Z 18011KT 30/22 A298 RMK A01 T02960218  RH  063%=      5-min Rain = 0
KME1 272127Z 18012KT 30/22 A298 RMK A01 T02980218  RH  062%=      5-min Rain = 0
KME1 272128Z 18014KT 30/21 A298 RMK A01 T02990214  RH  060%=      5-min Rain = 0
KME1 272129Z 17014KT 30/22 A298 RMK A01 T02990215  RH  061%=      5-min Rain = 0
KME1 272130Z 16013KT 30/22 A298 RMK A01 T02980215  RH  061%=      5-min Rain = 0
KME1 272131Z 18015KT 30/22 A298 RMK A01 T03000218  RH  062%=      5-min Rain = 0
KME1 272132Z 18014KT 30/21 A298 RMK A01 T03000212  RH  059%=      5-min Rain = 0
KME1 272133Z 17011KT 30/22 A298 RMK A01 T02990216  RH  061%=      5-min Rain = 0
KME1 272134Z 16010KT 30/22 A298 RMK A01 T02990217  RH  061%=      5-min Rain = 0
KME1 272135Z 17011KT 30/22 A298 RMK A01 T03000218  RH  061%=      5-min Rain = 0
KME1 272136Z 19011G16KT 30/22 A298 RMK A01 T03010219  RH  061%=      5-min Rain = 0
KME1 272137Z 19011KT 30/22 A298 RMK A01 T03010215  RH  060%=      5-min Rain = 0
KME1 272138Z 18012KT 30/22 A298 RMK A01 T03010219  RH  061%=      5-min Rain = 0
KME1 272139Z 19012G17KT 30/22 A2979 RMK A01 T03010215  RH  060%=      5-min Rain = 0
KME1 272140Z 17013G21KT 30/22 A298 RMK A01 T03000218  RH  062%=      5-min Rain = 0
KME1 272141Z 17014G19KT 30/22 A2979 RMK A01 T03000215  RH  060%=      5-min Rain = 0
KME1 272142Z 17014KT 30/21 A2979 RMK A01 T03000213  RH  060%=      5-min Rain = 0
KME1 272143Z 17012KT 30/21 A2979 RMK A01 T02990214  RH  060%=      5-min Rain = 0
KME1 272144Z 18012KT 30/22 A2979 RMK A01 T02990216  RH  061%=      5-min Rain = 0
KME1 272145Z 18013KT 30/22 A2979 RMK A01 T03000216  RH  061%=      5-min Rain = 0
KME1 272146Z 18014KT 30/22 A2979 RMK A01 T03000216  RH  061%=      5-min Rain = 0
KME1 272147Z 18014G20KT 30/21 A2979 RMK A01 T02990214  RH  060%=      5-min Rain = 0
KME1 272148Z 17016KT 30/21 A2979 RMK A01 T02990212  RH  060%=      5-min Rain = 0
KME1 272149Z 16013KT 30/21 A2979 RMK A01 T02980212  RH  060%=      5-min Rain = 0
KME1 272150Z 16012KT 30/21 A2979 RMK A01 T02980213  RH  060%=      5-min Rain = 0
KME1 272151Z 17010KT 30/22 A2979 RMK A01 T02990215  RH  061%=      5-min Rain = 0
KME1 272152Z 16009KT 30/22 A2979 RMK A01 T03000218  RH  061%=      5-min Rain = 0
KME1 272153Z 17009KT 30/22 A2979 RMK A01 T03010220  RH  062%=      5-min Rain = 0
KME1 272154Z 17014KT 30/22 A2979 RMK A01 T03020217  RH  060%=      5-min Rain = 0
KME1 272155Z 18013KT 30/21 A2979 RMK A01 T03020211  RH  058%=      5-min Rain = 0
KME1 272156Z 18012KT 30/22 A2979 RMK A01 T03020215  RH  060%=      5-min Rain = 0
KME1 272157Z 18012KT 30/22 A2979 RMK A01 T03000216  RH  061%=      5-min Rain = 0
KME1 272158Z 17010KT 30/22 A2979 RMK A01 T03000216  RH  061%=      5-min Rain = 0
KME1 272159Z 17013KT 30/22 A2978 RMK A01 T03000216  RH  061%=      5-min Rain = 0
KME1 272200Z 15013KT 30/22 A2978 RMK A01 T03010215  RH  060%=      5-min Rain = 0
KME1 272201Z 16013G18KT 30/22 A2978 RMK A01 T03010216  RH  060%=      5-min Rain = 0
KME1 272202Z 16016KT 30/21 A2978 RMK A01 T03020211  RH  058%=      5-min Rain = 0
KME1 272203Z 16015G20KT 30/21 A2978 RMK A01 T03010211  RH  058%=      5-min Rain = 0
KME1 272204Z 16014KT 30/21 A2978 RMK A01 T03020211  RH  058%=      5-min Rain = 0
KME1 272205Z 16013KT 30/21 A2978 RMK A01 T03010211  RH  058%=      5-min Rain = 0
KME1 272206Z 18012KT 30/21 A2978 RMK A01 T03020212  RH  059%=      5-min Rain = 0
KME1 272207Z 17013KT 30/21 A2978 RMK A01 T03020214  RH  059%=      5-min Rain = 0
KME1 272208Z 17013G20KT 30/21 A2978 RMK A01 T03010214  RH  059%=      5-min Rain = 0
KME1 272209Z 18013KT 30/21 A2978 RMK A01 T03010211  RH  059%=      5-min Rain = 0
KME1 272210Z 17015KT 30/21 A2978 RMK A01 T03000212  RH  059%=      5-min Rain = 0
KME1 272211Z 16016KT 30/21 A2978 RMK A01 T02990210  RH  059%=      5-min Rain = 0
KME1 272212Z 15012G17KT 30/21 A2978 RMK A01 T02990212  RH  060%=      5-min Rain = 0
KME1 272213Z 16014KT 30/21 A2978 RMK A01 T03010214  RH  060%=      5-min Rain = 0
KME1 272214Z 17015KT 30/21 A2978 RMK A01 T03010214  RH  060%=      5-min Rain = 0
KME1 272215Z 17012KT 30/22 A2978 RMK A01 T03010215  RH  060%=      5-min Rain = 0
KME1 272216Z 17014KT 30/22 A2978 RMK A01 T03010215  RH  060%=      5-min Rain = 0
KME1 272217Z 17012KT 30/22 A2978 RMK A01 T03000215  RH  060%=      5-min Rain = 0
KME1 272218Z 16012KT 30/22 A2978 RMK A01 T03000215  RH  060%=      5-min Rain = 0
KME1 272219Z 17008G13KT 30/22 A2978 RMK A01 T03010219  RH  061%=      5-min Rain = 0
KME1 272220Z 16012KT 30/22 A2978 RMK A01 T03020217  RH  060%=      5-min Rain = 0
KME1 272221Z 18011KT 30/22 A2978 RMK A01 T03030218  RH  061%=      5-min Rain = 0
KME1 272222Z 18012G18KT 30/21 A2978 RMK A01 T03030214  RH  059%=      5-min Rain = 0
KME1 272223Z 17015G20KT 30/22 A2978 RMK A01 T03020216  RH  060%=      5-min Rain = 0
KME1 272224Z 17016KT 30/21 A2978 RMK A01 T03020212  RH  059%=      5-min Rain = 0
KME1 272225Z 17016G23KT 30/21 A2978 RMK A01 T03020212  RH  059%=      5-min Rain = 0
KME1 272226Z 18016KT 30/21 A2978 RMK A01 T03010210  RH  058%=      5-min Rain = 0
KME1 272227Z 17015KT 30/21 A2978 RMK A01 T03010209  RH  058%=      5-min Rain = 0
KME1 272228Z 17017KT 30/21 A2978 RMK A01 T03010210  RH  058%=      5-min Rain = 0
KME1 272229Z 17013KT 30/21 A2977 RMK A01 T03000211  RH  059%=      5-min Rain = 0
KME1 272230Z 17014KT 30/21 A2977 RMK A01 T03000211  RH  059%=      5-min Rain = 0
KME1 272231Z 18010G15KT 30/22 A2977 RMK A01 T03010215  RH  060%=      5-min Rain = 0
KME1 272232Z 17013KT 30/21 A2977 RMK A01 T03010214  RH  060%=      5-min Rain = 0
KME1 272233Z 16014G19KT 30/21 A2977 RMK A01 T03010210  RH  058%=      5-min Rain = 0
KME1 272234Z 16015KT 30/21 A2977 RMK A01 T03010211  RH  059%=      5-min Rain = 0
KME1 272235Z 16016KT 30/21 A2977 RMK A01 T03020207  RH  057%=      5-min Rain = 0
KME1 272236Z 15013G18KT 30/21 A2977 RMK A01 T03020209  RH  057%=      5-min Rain = 0
KME1 272237Z 15013KT 30/21 A2977 RMK A01 T03020206  RH  056%=      5-min Rain = 0
KME1 272238Z 15011KT 30/21 A2977 RMK A01 T03030210  RH  058%=      5-min Rain = 0
KME1 272239Z 17014KT 30/21 A2977 RMK A01 T03030212  RH  058%=      5-min Rain = 0
KME1 272240Z 17015G20KT 30/21 A2977 RMK A01 T03030209  RH  057%=      5-min Rain = 0
KME1 272241Z 17015KT 30/21 A2977 RMK A01 T03020207  RH  057%=      5-min Rain = 0
KME1 272242Z 16012KT 30/21 A2977 RMK A01 T03010209  RH  058%=      5-min Rain = 0
KME1 272243Z 16014KT 30/21 A2977 RMK A01 T03000209  RH  058%=      5-min Rain = 0
KME1 272244Z 16017KT 30/21 A2977 RMK A01 T03010207  RH  057%=      5-min Rain = 0
KME1 272245Z 16016KT 30/21 A2977 RMK A01 T03010207  RH  057%=      5-min Rain = 0
KME1 272246Z 16013KT 30/21 A2977 RMK A01 T03010209  RH  058%=      5-min Rain = 0
KME1 272247Z 15009KT 30/21 A2977 RMK A01 T03020212  RH  059%=      5-min Rain = 0
KME1 272248Z 17014KT 30/21 A2977 RMK A01 T03020212  RH  059%=      5-min Rain = 0
KME1 272249Z 17013KT 30/21 A2977 RMK A01 T03020209  RH  057%=      5-min Rain = 0
KME1 272250Z 16012KT 30/21 A2977 RMK A01 T03020210  RH  058%=      5-min Rain = 0
KME1 272251Z 17013G18KT 30/21 A2977 RMK A01 T03020209  RH  058%=      5-min Rain = 0
KME1 272252Z 16017KT 30/21 A2977 RMK A01 T03020208  RH  057%=      5-min Rain = 0
KME1 272253Z 16020KT 30/21 A2977 RMK A01 T03020207  RH  057%=      5-min Rain = 0
KME1 272254Z 15017KT 30/21 A2977 RMK A01 T03010206  RH  057%=      5-min Rain = 0
KME1 272255Z 16013KT 30/21 A2977 RMK A01 T03010206  RH  057%=      5-min Rain = 0
KME1 272256Z 15012G17KT 30/21 A2977 RMK A01 T03010208  RH  058%=      5-min Rain = 0
KME1 272257Z 16010KT 30/21 A2977 RMK A01 T03010209  RH  058%=      5-min Rain = 0
KME1 272258Z 16010KT 30/21 A2977 RMK A01 T03010210  RH  058%=      5-min Rain = 0
KME1 272259Z 15011KT 30/21 A2977 RMK A01 T03020209  RH  058%=      5-min Rain = 0
KME1 272300Z 15011G17KT 30/21 A2977 RMK A01 T03020208  RH  057%=      5-min Rain = 0
KME1 272301Z 16017G22KT 30/21 A2977 RMK A01 T03030207  RH  057%=      5-min Rain = 0
KME1 272302Z 16018G23KT 30/21 A2977 RMK A01 T03030206  RH  056%=      5-min Rain = 0
KME1 272303Z 16015KT 30/21 A2977 RMK A01 T03030207  RH  056%=      5-min Rain = 0
KME1 272304Z 17013KT 30/21 A2977 RMK A01 T03020209  RH  058%=      5-min Rain = 0
KME1 272305Z 16011KT 30/21 A2977 RMK A01 T03010209  RH  058%=      5-min Rain = 0
KME1 272306Z 17013KT 30/21 A2977 RMK A01 T03010211  RH  058%=      5-min Rain = 0
KME1 272307Z 16012KT 30/21 A2977 RMK A01 T03010209  RH  058%=      5-min Rain = 0
KME1 272308Z 16014KT 30/21 A2977 RMK A01 T03010209  RH  058%=      5-min Rain = 0
KME1 272309Z 16016KT 30/21 A2977 RMK A01 T03010205  RH  057%=      5-min Rain = 0
KME1 272310Z 16012KT 30/21 A2977 RMK A01 T03010207  RH  057%=      5-min Rain = 0
KME1 272311Z 18012G17KT 30/21 A2977 RMK A01 T03020209  RH  057%=      5-min Rain = 0
KME1 272312Z 18012G17KT 30/21 A2977 RMK A01 T03010206  RH  057%=      5-min Rain = 0
KME1 272313Z 19013KT 30/21 A2976 RMK A01 T03000207  RH  057%=      5-min Rain = 0
KME1 272314Z 18011KT 30/21 A2977 RMK A01 T02990207  RH  058%=      5-min Rain = 0
KME1 272315Z 17012G19KT 30/21 A2977 RMK A01 T02990208  RH  058%=      5-min Rain = 0
KME1 272316Z 16014KT 30/21 A2977 RMK A01 T02990206  RH  057%=      5-min Rain = 0
KME1 272317Z 16015KT 30/20 A2976 RMK A01 T02990204  RH  057%=      5-min Rain = 0
KME1 272318Z 17016KT 30/21 A2976 RMK A01 T03000206  RH  057%=      5-min Rain = 0
KME1 272319Z 17017KT 30/20 A2976 RMK A01 T03000204  RH  056%=      5-min Rain = 0
KME1 272320Z 17016KT 30/20 A2976 RMK A01 T03000204  RH  056%=      5-min Rain = 0
KME1 272321Z 15016KT 30/20 A2976 RMK A01 T03000204  RH  057%=      5-min Rain = 0
KME1 272322Z 17016KT 30/20 A2976 RMK A01 T03000204  RH  056%=      5-min Rain = 0
KME1 272323Z 17016G21KT 30/20 A2976 RMK A01 T03000202  RH  056%=      5-min Rain = 0
KME1 272324Z 17016KT 30/20 A2976 RMK A01 T02990202  RH  056%=      5-min Rain = 0
KME1 272325Z 16012KT 30/21 A2976 RMK A01 T02990206  RH  057%=      5-min Rain = 0
KME1 272326Z 16014KT 30/20 A2976 RMK A01 T02980202  RH  056%=      5-min Rain = 0
KME1 272327Z 17012KT 30/20 A2976 RMK A01 T02990204  RH  057%=      5-min Rain = 0
KME1 272328Z 17011KT 30/21 A2976 RMK A01 T02990206  RH  057%=      5-min Rain = 0
KME1 272329Z 17015KT 30/20 A2976 RMK A01 T02990204  RH  056%=      5-min Rain = 0
KME1 272330Z 17015KT 30/20 A2976 RMK A01 T02990202  RH  056%=      5-min Rain = 0
KME1 272331Z 17013KT 30/20 A2976 RMK A01 T02990203  RH  056%=      5-min Rain = 0
KME1 272332Z 17011G16KT 30/20 A2976 RMK A01 T02990204  RH  057%=      5-min Rain = 0
KME1 272333Z 18014KT 30/20 A2976 RMK A01 T02980202  RH  056%=      5-min Rain = 0
KME1 272334Z 18015G20KT 30/20 A2976 RMK A01 T02980202  RH  056%=      5-min Rain = 0
KME1 272335Z 18014G19KT 30/20 A2976 RMK A01 T02980201  RH  056%=      5-min Rain = 0
KME1 272336Z 18012G18KT 30/20 A2976 RMK A01 T02970204  RH  057%=      5-min Rain = 0
KME1 272337Z 17013KT 30/20 A2976 RMK A01 T02960201  RH  057%=      5-min Rain = 0
KME1 272338Z 18015KT 30/20 A2976 RMK A01 T02960201  RH  056%=      5-min Rain = 0
KME1 272339Z 17012KT 30/20 A2976 RMK A01 T02970203  RH  057%=      5-min Rain = 0
KME1 272340Z 17012KT 30/21 A2976 RMK A01 T02970205  RH  058%=      5-min Rain = 0
KME1 272341Z 16010KT 30/21 A2976 RMK A01 T02970207  RH  058%=      5-min Rain = 0
KME1 272342Z 16009KT 30/21 A2976 RMK A01 T02970206  RH  058%=      5-min Rain = 0
KME1 272343Z 18010KT 30/21 A2976 RMK A01 T02980208  RH  058%=      5-min Rain = 0
KME1 272344Z 17011KT 30/21 A2976 RMK A01 T02990207  RH  058%=      5-min Rain = 0
KME1 272345Z 17015KT 30/21 A2976 RMK A01 T02990205  RH  057%=      5-min Rain = 0
KME1 272346Z 18012G18KT 30/21 A2976 RMK A01 T02990205  RH  057%=      5-min Rain = 0
KME1 272347Z 18015KT 30/21 A2976 RMK A01 T02980205  RH  058%=      5-min Rain = 0
KME1 272348Z 17014G19KT 30/20 A2976 RMK A01 T02970204  RH  058%=      5-min Rain = 0
KME1 272349Z 17012KT 30/21 A2976 RMK A01 T02960205  RH  058%=      5-min Rain = 0
KME1 272350Z 16013KT 30/21 A2976 RMK A01 T02960205  RH  058%=      5-min Rain = 0
KME1 272351Z 17012KT 30/20 A2976 RMK A01 T02970204  RH  058%=      5-min Rain = 0
KME1 272352Z 16008KT 30/21 A2976 RMK A01 T02970209  RH  059%=      5-min Rain = 0
KME1 272353Z 18010G16KT 30/21 A2976 RMK A01 T02970208  RH  059%=      5-min Rain = 0
KME1 272354Z 18014KT 30/21 A2976 RMK A01 T02970206  RH  058%=      5-min Rain = 0
KME1 272355Z 18013G18KT 30/20 A2976 RMK A01 T02960204  RH  058%=      5-min Rain = 0
KME1 272356Z 18013KT 30/20 A2976 RMK A01 T02960204  RH  058%=      5-min Rain = 0
KME1 272357Z 17015KT 30/21 A2976 RMK A01 T02960205  RH  058%=      5-min Rain = 0
KME1 272358Z 18015KT 30/20 A2976 RMK A01 T02950203  RH  058%=      5-min Rain = 0
KME1 272359Z 17016KT 30/20 A2976 RMK A01 T02950202  RH  057%=      5-min Rain = 0
KME1 280000Z 17015KT 30/20 A2976 RMK A01 T02950202  RH  057%=      5-min Rain = 0
KME1 280001Z 17016KT 30/20 A2976 RMK A01 T02950203  RH  058%=      5-min Rain = 0
KME1 280002Z 17014KT 29/20 A2975 RMK A01 T02940202  RH  057%=      5-min Rain = 0
KME1 280003Z 16013KT 29/20 A2975 RMK A01 T02940202  RH  058%=      5-min Rain = 0
KME1 280004Z 17014KT 30/20 A2975 RMK A01 T02950202  RH  058%=      5-min Rain = 0
KME1 280005Z 17015G20KT 30/20 A2975 RMK A01 T02950201  RH  057%=      5-min Rain = 0
KME1 280006Z 17013KT 30/20 A2975 RMK A01 T02950202  RH  057%=      5-min Rain = 0
KME1 280007Z 17017G23KT 29/20 A2975 RMK A01 T02940201  RH  057%=      5-min Rain = 0
KME1 280008Z 17017KT 29/20 A2975 RMK A01 T02940200  RH  057%=      5-min Rain = 0
KME1 280009Z 18014KT 29/20 A2975 RMK A01 T02940201  RH  057%=      5-min Rain = 0
KME1 280010Z 17013KT 29/20 A2975 RMK A01 T02940200  RH  057%=      5-min Rain = 0
KME1 280011Z 17011KT 29/20 A2975 RMK A01 T02940203  RH  058%=      5-min Rain = 0
KME1 280012Z 17013KT 29/20 A2975 RMK A01 T02940204  RH  059%=      5-min Rain = 0
KME1 280013Z 17011G16KT 29/21 A2975 RMK A01 T02930205  RH  059%=      5-min Rain = 0
KME1 280014Z 17014KT 29/20 A2975 RMK A01 T02930203  RH  058%=      5-min Rain = 0
KME1 280015Z 17014KT 29/20 A2975 RMK A01 T02930203  RH  059%=      5-min Rain = 0
KME1 280016Z 17016G21KT 29/20 A2975 RMK A01 T02930202  RH  058%=      5-min Rain = 0
KME1 280017Z 17015G20KT 29/20 A2975 RMK A01 T02930202  RH  058%=      5-min Rain = 0
KME1 280018Z 16014KT 29/20 A2975 RMK A01 T02930203  RH  058%=      5-min Rain = 0
KME1 280019Z 17013KT 29/20 A2975 RMK A01 T02930204  RH  058%=      5-min Rain = 0
KME1 280020Z 16014KT 29/20 A2975 RMK A01 T02930203  RH  058%=      5-min Rain = 0
KME1 280021Z 16016KT 29/20 A2975 RMK A01 T02930202  RH  058%=      5-min Rain = 0
KME1 280022Z 16015KT 29/20 A2975 RMK A01 T02930201  RH  058%=      5-min Rain = 0
KME1 280023Z 16013KT 29/20 A2975 RMK A01 T02930200  RH  057%=      5-min Rain = 0
KME1 280024Z 16017KT 29/20 A2975 RMK A01 T02940201  RH  057%=      5-min Rain = 0
KME1 280025Z 16014G19KT 29/20 A2975 RMK A01 T02940202  RH  058%=      5-min Rain = 0
KME1 280026Z 16014KT 29/20 A2975 RMK A01 T02930201  RH  057%=      5-min Rain = 0
KME1 280027Z 16014KT 29/20 A2975 RMK A01 T02930200  RH  057%=      5-min Rain = 0
KME1 280028Z 16011KT 29/20 A2975 RMK A01 T02930201  RH  058%=      5-min Rain = 0
KME1 280029Z 17010KT 29/20 A2975 RMK A01 T02930203  RH  058%=      5-min Rain = 0
KME1 280030Z 17010KT 29/21 A2975 RMK A01 T02920205  RH  059%=      5-min Rain = 0
KME1 280031Z 17013KT 29/20 A2975 RMK A01 T02910203  RH  059%=      5-min Rain = 0
KME1 280032Z 16009KT 29/20 A2975 RMK A01 T02910204  RH  059%=      5-min Rain = 0
KME1 280033Z 16013G19KT 29/20 A2975 RMK A01 T02910204  RH  059%=      5-min Rain = 0
KME1 280034Z 16016G21KT 29/20 A2975 RMK A01 T02910201  RH  058%=      5-min Rain = 0
KME1 280035Z 16014G21KT 29/20 A2974 RMK A01 T02910200  RH  058%=      5-min Rain = 0
KME1 280036Z 17014G21KT 29/20 A2975 RMK A01 T02910202  RH  059%=      5-min Rain = 0
KME1 280037Z 16015KT 29/20 A2974 RMK A01 T02910199  RH  058%=      5-min Rain = 0
KME1 280038Z 16017KT 29/20 A2974 RMK A01 T02910198  RH  057%=      5-min Rain = 0
KME1 280039Z 17013KT 29/20 A2974 RMK A01 T02910198  RH  057%=      5-min Rain = 0
KME1 280040Z 16015KT 29/20 A2974 RMK A01 T02920199  RH  057%=      5-min Rain = 0
KME1 280041Z 17013G18KT 29/20 A2974 RMK A01 T02910200  RH  058%=      5-min Rain = 0
KME1 280042Z 16015KT 29/20 A2974 RMK A01 T02900199  RH  058%=      5-min Rain = 0
KME1 280043Z 17012KT 29/20 A2974 RMK A01 T02900199  RH  058%=      5-min Rain = 0
KME1 280044Z 16011KT 29/20 A2974 RMK A01 T02900199  RH  058%=      5-min Rain = 0
KME1 280045Z 16013KT 29/20 A2974 RMK A01 T02890200  RH  059%=      5-min Rain = 0
KME1 280046Z 17011KT 29/20 A2974 RMK A01 T02890200  RH  059%=      5-min Rain = 0
KME1 280047Z 17011KT 29/20 A2974 RMK A01 T02880200  RH  059%=      5-min Rain = 0
KME1 280048Z 16010KT 29/20 A2974 RMK A01 T02880200  RH  059%=      5-min Rain = 0
KME1 280049Z 16011KT 29/20 A2974 RMK A01 T02870200  RH  059%=      5-min Rain = 0
KME1 280050Z 17014KT 29/20 A2974 RMK A01 T02870200  RH  059%=      5-min Rain = 0
KME1 280051Z 17015G20KT 29/20 A2974 RMK A01 T02870197  RH  058%=      5-min Rain = 0
KME1 280052Z 16014G20KT 29/20 A2974 RMK A01 T02880197  RH  058%=      5-min Rain = 0
KME1 280053Z 17014G20KT 29/20 A2974 RMK A01 T02880198  RH  058%=      5-min Rain = 0
KME1 280054Z 17017G22KT 29/20 A2974 RMK A01 T02870197  RH  058%=      5-min Rain = 0
KME1 280055Z 17013KT 29/20 A2974 RMK A01 T02870197  RH  058%=      5-min Rain = 0
KME1 280056Z 17013G18KT 29/20 A2974 RMK A01 T02860197  RH  059%=      5-min Rain = 0
KME1 280057Z 17012KT 29/20 A2974 RMK A01 T02860197  RH  059%=      5-min Rain = 0
KME1 280058Z 16009KT 29/20 A2974 RMK A01 T02860199  RH  059%=      5-min Rain = 0
KME1 280059Z 16009KT 29/20 A2974 RMK A01 T02850199  RH  060%=      5-min Rain = 0
KME1 280100Z 17012G19KT 28/20 A2974 RMK A01 T02840200  RH  060%=      5-min Rain = 0
KME1 280101Z 16015KT 28/20 A2974 RMK A01 T02830196  RH  059%=      5-min Rain = 0
KME1 280102Z 17014KT 28/20 A2974 RMK A01 T02840196  RH  059%=      5-min Rain = 0
KME1 280103Z 16011KT 29/20 A2974 RMK A01 T02850197  RH  059%=      5-min Rain = 0
KME1 280104Z 16011KT 29/20 A2974 RMK A01 T02850198  RH  059%=      5-min Rain = 0
KME1 280105Z 16012KT 28/20 A2974 RMK A01 T02840197  RH  059%=      5-min Rain = 0
KME1 280106Z 16012KT 28/20 A2974 RMK A01 T02840197  RH  059%=      5-min Rain = 0
KME1 280107Z 17011G16KT 28/20 A2974 RMK A01 T02840198  RH  060%=      5-min Rain = 0
KME1 280108Z 16014KT 28/20 A2974 RMK A01 T02830197  RH  059%=      5-min Rain = 0
KME1 280109Z 16013KT 28/20 A2974 RMK A01 T02830197  RH  059%=      5-min Rain = 0
KME1 280110Z 17011KT 28/20 A2974 RMK A01 T02830198  RH  060%=      5-min Rain = 0
KME1 280111Z 16012KT 28/20 A2974 RMK A01 T02830197  RH  060%=      5-min Rain = 0
KME1 280112Z 16013KT 28/20 A2974 RMK A01 T02830197  RH  060%=      5-min Rain = 0
KME1 280113Z 16014KT 28/20 A2974 RMK A01 T02830197  RH  060%=      5-min Rain = 0
KME1 280114Z 17012KT 28/20 A2974 RMK A01 T02830196  RH  059%=      5-min Rain = 0
KME1 280115Z 17010KT 28/20 A2974 RMK A01 T02830198  RH  060%=      5-min Rain = 0
KME1 280116Z 17010KT 28/20 A2974 RMK A01 T02810198  RH  061%=      5-min Rain = 0
KME1 280117Z 17013KT 28/20 A2974 RMK A01 T02800198  RH  061%=      5-min Rain = 0
KME1 280118Z 17011KT 28/20 A2974 RMK A01 T02800197  RH  061%=      5-min Rain = 0
KME1 280119Z 17014KT 28/20 A2974 RMK A01 T02790197  RH  061%=      5-min Rain = 0
KME1 280120Z 17014KT 28/20 A2974 RMK A01 T02800196  RH  060%=      5-min Rain = 0
KME1 280121Z 17012KT 28/20 A2974 RMK A01 T02800196  RH  060%=      5-min Rain = 0
KME1 280122Z 16014KT 28/20 A2974 RMK A01 T02800197  RH  060%=      5-min Rain = 0
KME1 280123Z 17014KT 28/20 A2974 RMK A01 T02800196  RH  060%=      5-min Rain = 0
KME1 280124Z 17012G17KT 28/20 A2974 RMK A01 T02800197  RH  060%=      5-min Rain = 0
KME1 280125Z 16011KT 28/20 A2974 RMK A01 T02800197  RH  061%=      5-min Rain = 0
KME1 280126Z 17011G16KT 28/20 A2974 RMK A01 T02790198  RH  061%=      5-min Rain = 0
KME1 280127Z 17012KT 28/20 A2974 RMK A01 T02780196  RH  061%=      5-min Rain = 0
KME1 280128Z 17015G20KT 28/20 A2974 RMK A01 T02780196  RH  061%=      5-min Rain = 0
KME1 280129Z 16012G17KT 28/20 A2974 RMK A01 T02780195  RH  061%=      5-min Rain = 0
KME1 280130Z 17013KT 28/20 A2974 RMK A01 T02780197  RH  061%=      5-min Rain = 0
KME1 280131Z 17012KT 28/20 A2974 RMK A01 T02780197  RH  061%=      5-min Rain = 0
KME1 280132Z 16014KT 28/20 A2974 RMK A01 T02770196  RH  061%=      5-min Rain = 0
KME1 280133Z 17011KT 28/20 A2974 RMK A01 T02770195  RH  061%=      5-min Rain = 0
KME1 280134Z 16009KT 28/20 A2974 RMK A01 T02770197  RH  062%=      5-min Rain = 0
KME1 280135Z 16010KT 28/20 A2974 RMK A01 T02760197  RH  062%=      5-min Rain = 0
KME1 280136Z 16012G17KT 28/20 A2974 RMK A01 T02750196  RH  062%=      5-min Rain = 0
KME1 280137Z 16009KT 28/20 A2974 RMK A01 T02750197  RH  062%=      5-min Rain = 0
KME1 280138Z 16009KT 28/20 A2975 RMK A01 T02750198  RH  063%=      5-min Rain = 0
KME1 280139Z 16010G15KT 27/20 A2975 RMK A01 T02730198  RH  063%=      5-min Rain = 0
KME1 280140Z 16011KT 27/20 A2974 RMK A01 T02720197  RH  063%=      5-min Rain = 0
KME1 280141Z 17011KT 27/20 A2975 RMK A01 T02720197  RH  064%=      5-min Rain = 0
KME1 280142Z 16015KT 27/20 A2975 RMK A01 T02720196  RH  063%=      5-min Rain = 0
KME1 280143Z 17012KT 27/20 A2975 RMK A01 T02730197  RH  063%=      5-min Rain = 0
KME1 280144Z 16014G19KT 27/20 A2974 RMK A01 T02730197  RH  063%=      5-min Rain = 0
KME1 280145Z 16013G18KT 27/20 A2974 RMK A01 T02730197  RH  063%=      5-min Rain = 0
KME1 280146Z 16014KT 27/20 A2974 RMK A01 T02730197  RH  063%=      5-min Rain = 0
KME1 280147Z 17014KT 27/20 A2975 RMK A01 T02740196  RH  063%=      5-min Rain = 0
KME1 280148Z 17014G19KT 27/20 A2974 RMK A01 T02740197  RH  063%=      5-min Rain = 0
KME1 280149Z 16015KT 27/20 A2974 RMK A01 T02740197  RH  063%=      5-min Rain = 0
KME1 280150Z 17013G18KT 27/20 A2974 RMK A01 T02740196  RH  063%=      5-min Rain = 0
KME1 280151Z 17012KT 27/20 A2974 RMK A01 T02740196  RH  063%=      5-min Rain = 0
KME1 280152Z 17013KT 27/20 A2974 RMK A01 T02740197  RH  063%=      5-min Rain = 0
KME1 280153Z 17014KT 27/20 A2974 RMK A01 T02730197  RH  063%=      5-min Rain = 0
KME1 280154Z 17013KT 27/20 A2974 RMK A01 T02730197  RH  063%=      5-min Rain = 0
KME1 280155Z 16013KT 27/20 A2974 RMK A01 T02720196  RH  063%=      5-min Rain = 0
KME1 280156Z 17013KT 27/20 A2974 RMK A01 T02720196  RH  063%=      5-min Rain = 0
KME1 280157Z 16012KT 27/20 A2974 RMK A01 T02720196  RH  063%=      5-min Rain = 0
KME1 280158Z 16010KT 27/20 A2974 RMK A01 T02720196  RH  063%=      5-min Rain = 0
KME1 280159Z 16011KT 27/20 A2974 RMK A01 T02710196  RH  064%=      5-min Rain = 0
KME1 280200Z 16014KT 27/20 A2974 RMK A01 T02700195  RH  064%=      5-min Rain = 0
KME1 280201Z 16012KT 27/20 A2974 RMK A01 T02710195  RH  063%=      5-min Rain = 0
KME1 280202Z 16013G18KT 27/20 A2974 RMK A01 T02710195  RH  063%=      5-min Rain = 0
KME1 280203Z 16016KT 27/20 A2974 RMK A01 T02710195  RH  063%=      5-min Rain = 0
KME1 280204Z 16013KT 27/20 A2974 RMK A01 T02710195  RH  063%=      5-min Rain = 0
KME1 280205Z 16013KT 27/20 A2974 RMK A01 T02710195  RH  063%=      5-min Rain = 0
KME1 280206Z 16011KT 27/20 A2974 RMK A01 T02710196  RH  063%=      5-min Rain = 0
KME1 280207Z 16010KT 27/20 A2974 RMK A01 T02700196  RH  064%=      5-min Rain = 0
KME1 280208Z 17011KT 27/20 A2974 RMK A01 T02690195  RH  064%=      5-min Rain = 0
KME1 280209Z 16013KT 27/20 A2974 RMK A01 T02680195  RH  064%=      5-min Rain = 0
KME1 280210Z 16013KT 27/19 A2974 RMK A01 T02680194  RH  064%=      5-min Rain = 0
KME1 280211Z 16012KT 27/20 A2974 RMK A01 T02680195  RH  064%=      5-min Rain = 0
KME1 280212Z 16010KT 27/19 A2974 RMK A01 T02680194  RH  064%=      5-min Rain = 0
KME1 280213Z 16009KT 27/20 A2975 RMK A01 T02680196  RH  064%=      5-min Rain = 0
KME1 280214Z 16012KT 27/20 A2975 RMK A01 T02670195  RH  065%=      5-min Rain = 0
KME1 280215Z 16010KT 27/20 A2975 RMK A01 T02660195  RH  065%=      5-min Rain = 0
KME1 280216Z 16011KT 27/20 A2974 RMK A01 T02660195  RH  065%=      5-min Rain = 0
KME1 280217Z 16010KT 27/20 A2974 RMK A01 T02660195  RH  065%=      5-min Rain = 0
KME1 280218Z 16010KT 27/20 A2974 RMK A01 T02650195  RH  065%=      5-min Rain = 0
KME1 280219Z 16013KT 27/20 A2974 RMK A01 T02650196  RH  066%=      5-min Rain = 0
KME1 280220Z 16013KT 27/20 A2974 RMK A01 T02650195  RH  065%=      5-min Rain = 0
KME1 280221Z 17013KT 27/20 A2974 RMK A01 T02650195  RH  065%=      5-min Rain = 0
KME1 280222Z 16014KT 27/20 A2975 RMK A01 T02660195  RH  065%=      5-min Rain = 0
KME1 280223Z 17011KT 27/20 A2974 RMK A01 T02660196  RH  065%=      5-min Rain = 0
KME1 280224Z 16015KT 27/20 A2974 RMK A01 T02660196  RH  066%=      5-min Rain = 0
KME1 280225Z 16013KT 27/20 A2974 RMK A01 T02650195  RH  065%=      5-min Rain = 0
KME1 280226Z 16013G18KT 27/20 A2974 RMK A01 T02650195  RH  065%=      5-min Rain = 0
KME1 280227Z 16013KT 27/20 A2974 RMK A01 T02650196  RH  065%=      5-min Rain = 0
KME1 280228Z 16011KT 27/20 A2974 RMK A01 T02650196  RH  066%=      5-min Rain = 0
KME1 280229Z 16013KT 27/20 A2974 RMK A01 T02650196  RH  066%=      5-min Rain = 0
KME1 280230Z 16012G17KT 27/20 A2974 RMK A01 T02650196  RH  066%=      5-min Rain = 0
KME1 280231Z 16012KT 27/20 A2974 RMK A01 T02650196  RH  066%=      5-min Rain = 0
KME1 280232Z 16011KT 26/20 A2974 RMK A01 T02640196  RH  066%=      5-min Rain = 0
KME1 280233Z 16012G17KT 26/20 A2974 RMK A01 T02630197  RH  067%=      5-min Rain = 0
KME1 280234Z 16012KT 26/20 A2974 RMK A01 T02630196  RH  067%=      5-min Rain = 0
KME1 280235Z 16012G18KT 26/20 A2974 RMK A01 T02620196  RH  067%=      5-min Rain = 0
KME1 280236Z 16011KT 26/20 A2974 RMK A01 T02620196  RH  067%=      5-min Rain = 0
KME1 280237Z 16015KT 26/20 A2974 RMK A01 T02620196  RH  067%=      5-min Rain = 0
KME1 280238Z 16012KT 26/20 A2975 RMK A01 T02630196  RH  067%=      5-min Rain = 0
KME1 280239Z 17013KT 26/20 A2974 RMK A01 T02630196  RH  066%=      5-min Rain = 0
KME1 280240Z 16013KT 26/20 A2975 RMK A01 T02630196  RH  066%=      5-min Rain = 0
KME1 280241Z 16015KT 26/20 A2975 RMK A01 T02630196  RH  066%=      5-min Rain = 0
KME1 280242Z 16015G20KT 26/20 A2975 RMK A01 T02640196  RH  066%=      5-min Rain = 0
KME1 280243Z 16012G17KT 26/20 A2975 RMK A01 T02640196  RH  066%=      5-min Rain = 0
KME1 280244Z 16014G20KT 26/20 A2975 RMK A01 T02640196  RH  066%=      5-min Rain = 0
KME1 280245Z 16012G18KT 26/20 A2974 RMK A01 T02630196  RH  066%=      5-min Rain = 0
KME1 280246Z 16014G21KT 26/20 A2974 RMK A01 T02630196  RH  067%=      5-min Rain = 0
KME1 280247Z 17013KT 26/20 A2974 RMK A01 T02630195  RH  066%=      5-min Rain = 0
KME1 280248Z 16010KT 26/20 A2975 RMK A01 T02630196  RH  067%=      5-min Rain = 0
KME1 280249Z 17015KT 26/20 A2975 RMK A01 T02620196  RH  067%=      5-min Rain = 0
KME1 280250Z 16013KT 26/20 A2975 RMK A01 T02620196  RH  067%=      5-min Rain = 0
KME1 280251Z 16011KT 26/20 A2975 RMK A01 T02620197  RH  067%=      5-min Rain = 0
KME1 280252Z 16015G20KT 26/20 A2975 RMK A01 T02610196  RH  068%=      5-min Rain = 0
KME1 280253Z 16012KT 26/20 A2974 RMK A01 T02610196  RH  067%=      5-min Rain = 0
KME1 280254Z 16015KT 26/20 A2974 RMK A01 T02600196  RH  067%=      5-min Rain = 0
KME1 280255Z 16013KT 26/20 A2974 RMK A01 T02610195  RH  067%=      5-min Rain = 0
KME1 280256Z 16015KT 26/20 A2974 RMK A01 T02610196  RH  067%=      5-min Rain = 0
KME1 280257Z 16015KT 26/20 A2974 RMK A01 T02610196  RH  067%=      5-min Rain = 0
KME1 280258Z 16013KT 26/20 A2974 RMK A01 T02610195  RH  067%=      5-min Rain = 0
KME1 280259Z 17016KT 26/20 A2974 RMK A01 T02610196  RH  067%=      5-min Rain = 0
KME1 280300Z 16019G24KT 26/20 A2974 RMK A01 T02610195  RH  067%=      5-min Rain = 0
KME1 280301Z 16016KT 26/20 A2974 RMK A01 T02610195  RH  067%=      5-min Rain = 0
KME1 280302Z 17017G22KT 26/20 A2975 RMK A01 T02620195  RH  067%=      5-min Rain = 0
KME1 280303Z 16019KT 26/20 A2974 RMK A01 T02620195  RH  066%=      5-min Rain = 0
KME1 280304Z 16016KT 26/19 A2974 RMK A01 T02620194  RH  066%=      5-min Rain = 0
KME1 280305Z 16012G18KT 26/20 A2974 RMK A01 T02620195  RH  066%=      5-min Rain = 0
KME1 280306Z 17015KT 26/20 A2974 RMK A01 T02610195  RH  067%=      5-min Rain = 0
KME1 280307Z 17015KT 26/20 A2974 RMK A01 T02610195  RH  067%=      5-min Rain = 0
KME1 280308Z 16012G19KT 26/20 A2974 RMK A01 T02610195  RH  067%=      5-min Rain = 0
KME1 280309Z 16014KT 26/20 A2974 RMK A01 T02600195  RH  067%=      5-min Rain = 0
KME1 280310Z 16015KT 26/19 A2974 RMK A01 T02590194  RH  067%=      5-min Rain = 0
KME1 280311Z 16019KT 26/19 A2974 RMK A01 T02600194  RH  067%=      5-min Rain = 0
KME1 280312Z 16014G19KT 26/19 A2974 RMK A01 T02600193  RH  067%=      5-min Rain = 0
KME1 280313Z 16016G21KT 26/19 A2974 RMK A01 T02600193  RH  067%=      5-min Rain = 0
KME1 280314Z 17016G22KT 26/19 A2974 RMK A01 T02600193  RH  067%=      5-min Rain = 0
KME1 280315Z 17015KT 26/19 A2974 RMK A01 T02600193  RH  066%=      5-min Rain = 0
KME1 280316Z 17015G20KT 26/19 A2974 RMK A01 T02600193  RH  067%=      5-min Rain = 0
KME1 280317Z 17017G25KT 26/19 A2974 RMK A01 T02590193  RH  067%=      5-min Rain = 0
KME1 280318Z 17016G21KT 26/19 A2974 RMK A01 T02590192  RH  067%=      5-min Rain = 0
KME1 280319Z 16014KT 26/19 A2974 RMK A01 T02590192  RH  067%=      5-min Rain = 0
KME1 280320Z 17014KT 26/19 A2974 RMK A01 T02590193  RH  067%=      5-min Rain = 0
KME1 280321Z 17015KT 26/19 A2974 RMK A01 T02580193  RH  067%=      5-min Rain = 0
KME1 280322Z 17016G23KT 26/19 A2974 RMK A01 T02580192  RH  067%=      5-min Rain = 0
KME1 280323Z 16018G24KT 26/19 A2974 RMK A01 T02570191  RH  067%=      5-min Rain = 0
KME1 280324Z 16015G20KT 26/19 A2974 RMK A01 T02580191  RH  067%=      5-min Rain = 0
KME1 280325Z 17015G21KT 26/19 A2974 RMK A01 T02580191  RH  066%=      5-min Rain = 0
KME1 280326Z 17014KT 26/19 A2974 RMK A01 T02590191  RH  066%=      5-min Rain = 0
KME1 280327Z 16014KT 26/19 A2974 RMK A01 T02580192  RH  067%=      5-min Rain = 0
KME1 280328Z 17016KT 26/19 A2974 RMK A01 T02580192  RH  067%=      5-min Rain = 0
KME1 280329Z 17016G22KT 26/19 A2974 RMK A01 T02580191  RH  067%=      5-min Rain = 0
KME1 280330Z 16014G20KT 26/19 A2974 RMK A01 T02570191  RH  067%=      5-min Rain = 0
KME1 280331Z 16013KT 26/19 A2974 RMK A01 T02570191  RH  067%=      5-min Rain = 0
KME1 280332Z 17016G21KT 26/19 A2974 RMK A01 T02570191  RH  067%=      5-min Rain = 0
KME1 280333Z 16016G22KT 26/19 A2974 RMK A01 T02570191  RH  067%=      5-min Rain = 0
KME1 280334Z 17014G19KT 26/19 A2974 RMK A01 T02570190  RH  066%=      5-min Rain = 0
KME1 280335Z 17014KT 26/19 A2974 RMK A01 T02580191  RH  066%=      5-min Rain = 0
KME1 280336Z 17015G20KT 26/19 A2974 RMK A01 T02580191  RH  067%=      5-min Rain = 0
KME1 280337Z 17015G20KT 26/19 A2974 RMK A01 T02570191  RH  067%=      5-min Rain = 0
KME1 280338Z 16014KT 26/19 A2974 RMK A01 T02570191  RH  067%=      5-min Rain = 0
KME1 280339Z 17015KT 26/19 A2974 RMK A01 T02570190  RH  067%=      5-min Rain = 0
KME1 280340Z 17015KT 26/19 A2974 RMK A01 T02570190  RH  066%=      5-min Rain = 0
KME1 280341Z 17015G20KT 26/19 A2975 RMK A01 T02570190  RH  066%=      5-min Rain = 0
KME1 280342Z 17014KT 26/19 A2974 RMK A01 T02570190  RH  066%=      5-min Rain = 0
KME1 280343Z 16015KT 26/19 A2974 RMK A01 T02570190  RH  066%=      5-min Rain = 0
KME1 280344Z 16017KT 26/19 A2975 RMK A01 T02570189  RH  066%=      5-min Rain = 0
KME1 280345Z 17014KT 26/19 A2975 RMK A01 T02570190  RH  066%=      5-min Rain = 0
KME1 280346Z 17013KT 26/19 A2975 RMK A01 T02570190  RH  067%=      5-min Rain = 0
KME1 280347Z 17015KT 26/19 A2975 RMK A01 T02560190  RH  067%=      5-min Rain = 0
KME1 280348Z 17016G23KT 26/19 A2974 RMK A01 T02560190  RH  067%=      5-min Rain = 0
KME1 280349Z 17015G20KT 26/19 A2974 RMK A01 T02550189  RH  067%=      5-min Rain = 0
KME1 280350Z 17016KT 26/19 A2974 RMK A01 T02550189  RH  067%=      5-min Rain = 0
KME1 280351Z 17015KT 26/19 A2974 RMK A01 T02560189  RH  066%=      5-min Rain = 0
KME1 280352Z 16014KT 26/19 A2975 RMK A01 T02560189  RH  067%=      5-min Rain = 0
KME1 280353Z 17013G18KT 26/19 A2975 RMK A01 T02560190  RH  067%=      5-min Rain = 0
KME1 280354Z 17016KT 26/19 A2975 RMK A01 T02550189  RH  067%=      5-min Rain = 0
KME1 280355Z 17013KT 26/19 A2975 RMK A01 T02550189  RH  067%=      5-min Rain = 0
KME1 280356Z 17013G18KT 26/19 A2975 RMK A01 T02550189  RH  067%=      5-min Rain = 0
KME1 280357Z 17013KT 25/19 A2975 RMK A01 T02540189  RH  067%=      5-min Rain = 0
KME1 280358Z 18015KT 25/19 A2975 RMK A01 T02540189  RH  067%=      5-min Rain = 0
KME1 280359Z 17013KT 25/19 A2975 RMK A01 T02540189  RH  067%=      5-min Rain = 0
KME1 280400Z 17013KT 25/19 A2975 RMK A01 T02540189  RH  067%=      5-min Rain = 0
KME1 280401Z 17017KT 25/19 A2974 RMK A01 T02540188  RH  067%=      5-min Rain = 0
KME1 280402Z 17015G21KT 26/19 A2975 RMK A01 T02550187  RH  066%=      5-min Rain = 0
KME1 280403Z 17015G21KT 26/19 A2975 RMK A01 T02550188  RH  066%=      5-min Rain = 0
KME1 280404Z 17015G22KT 26/19 A2975 RMK A01 T02560188  RH  066%=      5-min Rain = 0
KME1 280405Z 17016KT 26/19 A2974 RMK A01 T02550187  RH  066%=      5-min Rain = 0
KME1 280406Z 17017KT 26/19 A2975 RMK A01 T02560187  RH  066%=      5-min Rain = 0
KME1 280407Z 17014KT 26/19 A2975 RMK A01 T02550187  RH  066%=      5-min Rain = 0
KME1 280408Z 18015KT 26/19 A2975 RMK A01 T02550187  RH  066%=      5-min Rain = 0
KME1 280409Z 18013G19KT 26/19 A2975 RMK A01 T02550187  RH  066%=      5-min Rain = 0
KME1 280410Z 17014G23KT 25/19 A2975 RMK A01 T02540187  RH  066%=      5-min Rain = 0
KME1 280411Z 17019G26KT 25/19 A2974 RMK A01 T02540185  RH  066%=      5-min Rain = 0
KME1 280412Z 17017G22KT 25/18 A2975 RMK A01 T02540184  RH  065%=      5-min Rain = 0
KME1 280413Z 18015KT 26/19 A2975 RMK A01 T02550185  RH  065%=      5-min Rain = 0
KME1 280414Z 18017KT 26/19 A2975 RMK A01 T02550185  RH  065%=      5-min Rain = 0
KME1 280415Z 17016KT 26/19 A2975 RMK A01 T02550185  RH  065%=      5-min Rain = 0
KME1 280416Z 17014KT 26/19 A2975 RMK A01 T02550185  RH  065%=      5-min Rain = 0
KME1 280417Z 17017KT 25/19 A2975 RMK A01 T02540185  RH  066%=      5-min Rain = 0
KME1 280418Z 18014KT 25/18 A2975 RMK A01 T02530184  RH  065%=      5-min Rain = 0
KME1 280419Z 17013KT 25/19 A2975 RMK A01 T02540185  RH  066%=      5-min Rain = 0
KME1 280420Z 17013KT 25/19 A2975 RMK A01 T02540185  RH  066%=      5-min Rain = 0
KME1 280421Z 17013KT 25/19 A2975 RMK A01 T02530185  RH  066%=      5-min Rain = 0
KME1 280422Z 16016KT 25/19 A2975 RMK A01 T02520185  RH  066%=      5-min Rain = 0
KME1 280423Z 17016G21KT 25/18 A2975 RMK A01 T02530184  RH  066%=      5-min Rain = 0
KME1 280424Z 17015G20KT 25/18 A2975 RMK A01 T02530184  RH  066%=      5-min Rain = 0
KME1 280425Z 17017KT 25/18 A2974 RMK A01 T02530184  RH  066%=      5-min Rain = 0
KME1 280426Z 17016KT 25/18 A2974 RMK A01 T02530184  RH  066%=      5-min Rain = 0
KME1 280427Z 17013G18KT 25/18 A2975 RMK A01 T02530184  RH  066%=      5-min Rain = 0
KME1 280428Z 17016G21KT 25/18 A2975 RMK A01 T02530184  RH  066%=      5-min Rain = 0
KME1 280429Z 17011KT 25/19 A2974 RMK A01 T02520185  RH  066%=      5-min Rain = 0
KME1 280430Z 17015KT 25/19 A2975 RMK A01 T02520185  RH  066%=      5-min Rain = 0
KME1 280431Z 17011KT 25/18 A2975 RMK A01 T02510184  RH  066%=      5-min Rain = 0
KME1 280432Z 17013G21KT 25/19 A2975 RMK A01 T02510185  RH  067%=      5-min Rain = 0
KME1 280433Z 17016KT 25/18 A2975 RMK A01 T02500184  RH  067%=      5-min Rain = 0
KME1 280434Z 17013G20KT 25/18 A2975 RMK A01 T02500184  RH  066%=      5-min Rain = 0
KME1 280435Z 17013KT 25/18 A2974 RMK A01 T02510184  RH  066%=      5-min Rain = 0
KME1 280436Z 16013KT 25/19 A2975 RMK A01 T02500185  RH  067%=      5-min Rain = 0
KME1 280437Z 17015KT 25/18 A2974 RMK A01 T02490184  RH  067%=      5-min Rain = 0
KME1 280438Z 16012KT 25/18 A2975 RMK A01 T02490184  RH  067%=      5-min Rain = 0
KME1 280439Z 17012KT 25/19 A2974 RMK A01 T02490185  RH  067%=      5-min Rain = 0
KME1 280440Z 16013KT 25/18 A2974 RMK A01 T02480184  RH  068%=      5-min Rain = 0
KME1 280441Z 17011KT 25/18 A2975 RMK A01 T02480184  RH  068%=      5-min Rain = 0
KME1 280442Z 17014KT 25/18 A2974 RMK A01 T02470184  RH  068%=      5-min Rain = 0
KME1 280443Z 17012G17KT 25/18 A2974 RMK A01 T02470184  RH  068%=      5-min Rain = 0
KME1 280444Z 17013KT 25/18 A2974 RMK A01 T02470184  RH  068%=      5-min Rain = 0
KME1 280445Z 17013KT 25/18 A2974 RMK A01 T02470184  RH  068%=      5-min Rain = 0
KME1 280446Z 17016KT 25/18 A2974 RMK A01 T02470184  RH  068%=      5-min Rain = 0
KME1 280447Z 17015KT 25/18 A2974 RMK A01 T02470184  RH  068%=      5-min Rain = 0
KME1 280448Z 17015KT 25/18 A2974 RMK A01 T02470183  RH  068%=      5-min Rain = 0
KME1 280449Z 17013KT 25/18 A2974 RMK A01 T02480184  RH  067%=      5-min Rain = 0
KME1 280450Z 17013KT 25/18 A2974 RMK A01 T02480184  RH  068%=      5-min Rain = 0
KME1 280451Z 17012KT 25/18 A2974 RMK A01 T02470184  RH  068%=      5-min Rain = 0
KME1 280452Z 17013KT 25/18 A2974 RMK A01 T02470184  RH  068%=      5-min Rain = 0
KME1 280453Z 16014G20KT 25/18 A2974 RMK A01 T02460184  RH  068%=      5-min Rain = 0
KME1 280454Z 17014G20KT 25/18 A2974 RMK A01 T02460184  RH  068%=      5-min Rain = 0
KME1 280455Z 17015KT 25/18 A2974 RMK A01 T02460183  RH  068%=      5-min Rain = 0
KME1 280456Z 17014KT 25/18 A2974 RMK A01 T02460183  RH  068%=      5-min Rain = 0
KME1 280457Z 17016KT 25/18 A2974 RMK A01 T02460183  RH  068%=      5-min Rain = 0
KME1 280458Z 17014KT 25/18 A2974 RMK A01 T02460183  RH  068%=      5-min Rain = 0
KME1 280459Z 16016KT 25/18 A2974 RMK A01 T02460183  RH  068%=      5-min Rain = 0

Page generated in 0.1503 seconds.